Flight Track Log - Related Links

Times and Time Zones

All times are in EDT time to prevent confusion due to time zone crossing. See the AFL150 flight status page for this flight to view local times or setup timezone preferences in your user account.

Time Position Orientation Groundspeed Altitude Reporting Facility
EDT Latitude Longitude Course Direction KTS MPH feet Rate Location/Type
Mon 09:08:04 AM 55.9650 37.3730 254° West 179 206 1,300  Level FlightAware ADS-B
Mon 09:08:25 AM 55.9600 37.3440 253° West 180 207 2,100 2,100 Climbing FlightAware ADS-B
Mon 09:08:44 AM 55.9560 37.3150 256° West 192 221 2,700 1,227 Climbing FlightAware ADS-B
Mon 09:09:09 AM 55.9510 37.2730 258° West 219 252 3,000 933 Climbing FlightAware ADS-B
Mon 09:09:29 AM 55.9450 37.2350 254° West 245 282 3,400 1,543 Climbing FlightAware ADS-B
Mon 09:09:44 AM 55.9430 37.2050 263° West 254 292 3,900 2,571 Climbing FlightAware ADS-B
Mon 09:10:04 AM 55.9470 37.1640 280° West 250 288 4,900 2,850 Climbing FlightAware ADS-B
Mon 09:10:24 AM 55.9520 37.1240 283° West 252 290 5,800 2,400 Climbing FlightAware ADS-B
Mon 09:10:44 AM 55.9570 37.0830 282° West 259 298 6,500 2,400 Climbing FlightAware ADS-B
Mon 09:11:04 AM 55.9610 37.0420 280° West 260 299 7,400 1,552 Climbing FlightAware ADS-B
Mon 09:11:42 AM 55.9670 36.9800 280° West 264 304 8,000 590 Climbing FlightAware ADS-B
Mon 09:12:05 AM 55.9740 36.9100 280° West 262 302 8,000  Level FlightAware ADS-B
Mon 09:12:17 AM 55.9760 36.8840 278° West 262 302 8,000  Level FlightAware ADS-B
Mon 09:12:37 AM 55.9800 36.8420 280° West 261 300 8,000 136 Level FlightAware ADS-B
Mon 09:13:01 AM 55.9830 36.7950 277° West 262 302 8,100 625 Climbing FlightAware ADS-B
Mon 09:13:25 AM 55.9790 36.7410 262° West 263 303 8,500 1,091 Climbing FlightAware ADS-B
Mon 09:13:45 AM 55.9770 36.7000 265° West 266 306 8,900 1,091 Climbing FlightAware ADS-B
Mon 09:14:09 AM 55.9720 36.6410 261° West 283 326 9,300 955 Climbing FlightAware ADS-B
Mon 09:14:29 AM 55.9690 36.5960 263° West 293 337 9,600 1,050 Climbing FlightAware ADS-B
Mon 09:14:49 AM 55.9660 36.5460 264° West 301 346 10,000 964 Climbing FlightAware ADS-B
Mon 09:15:25 AM 55.9590 36.4530 262° West 318 366 10,500 917 Climbing FlightAware ADS-B
Mon 09:16:01 AM 55.9530 36.3590 264° West 316 364 11,100 1,594 Climbing FlightAware ADS-B
Mon 09:16:29 AM 55.9590 36.2970 280° West 313 360 12,200 2,100 Climbing FlightAware ADS-B
Mon 09:17:01 AM 55.9710 36.2080 284° West 315 362 13,200 2,118 Climbing FlightAware ADS-B
Mon 09:17:37 AM 55.9820 36.1160 282° West 317 365 14,600 2,382 Climbing FlightAware ADS-B
Mon 09:18:09 AM 55.9920 36.0440 284° West 316 364 15,900 2,333 Climbing FlightAware ADS-B
Mon 09:18:49 AM 56.0070 35.9340 284° West 320 368 17,400 1,750 Climbing FlightAware ADS-B
Mon 09:19:21 AM 56.0180 35.8490 283° West 329 379 18,000 500 Climbing FlightAware ADS-B
Mon 09:20:01 AM 56.0320 35.7440 283° West 341 392 18,000 553 Level FlightAware ADS-B
Mon 09:20:37 AM 56.0450 35.6420 283° West 342 394 18,700 1,500 Climbing FlightAware ADS-B
Mon 09:21:09 AM 56.0560 35.5580 283° West 346 398 19,700 1,941 Climbing FlightAware ADS-B
Mon 09:21:45 AM 56.0700 35.4540 284° West 349 402 20,900 1,765 Climbing FlightAware ADS-B
Mon 09:22:17 AM 56.0810 35.3650 283° West 354 407 21,700 1,500 Climbing FlightAware ADS-B
Mon 09:22:53 AM 56.0950 35.2600 283° West 363 418 22,600 1,417 Climbing FlightAware ADS-B
Mon 09:23:29 AM 56.1070 35.1610 282° West 369 425 23,400 1,412 Climbing FlightAware ADS-B
Mon 09:24:01 AM 56.1200 35.0580 283° West 372 428 24,200 1,500 Climbing FlightAware ADS-B
Mon 09:24:41 AM 56.1360 34.9380 284° West 376 433 25,200 1,342 Climbing FlightAware ADS-B
Mon 09:25:17 AM 56.1490 34.8270 282° West 379 436 25,900 1,588 Climbing FlightAware ADS-B
Mon 09:25:49 AM 56.1610 34.7290 282° West 371 427 27,000 1,412 Climbing FlightAware ADS-B
Mon 09:26:25 AM 56.1750 34.6200 283° West 380 437 27,500 794 Climbing FlightAware ADS-B
Mon 09:26:57 AM 56.1870 34.5240 283° West 384 442 27,900 844 Climbing FlightAware ADS-B
Mon 09:27:29 AM 56.1990 34.4210 282° West 389 448 28,400 882 Climbing FlightAware ADS-B
Mon 09:28:05 AM 56.2120 34.3090 282° West 394 453 28,900 750 Climbing FlightAware ADS-B
Mon 09:28:41 AM 56.2260 34.1960 283° West 398 458 29,300 1,050 Climbing FlightAware ADS-B
Mon 09:29:25 AM 56.2420 34.0590 282° West 395 455 30,300 1,350 Climbing FlightAware ADS-B
Mon 09:30:01 AM 56.2560 33.9400 282° West 391 450 31,100 1,167 Climbing FlightAware ADS-B
Mon 09:30:37 AM 56.2700 33.8190 282° West 391 450 31,700 1,342 Climbing FlightAware ADS-B
Mon 09:31:17 AM 56.2830 33.7030 281° West 377 434 32,800 1,421 Climbing FlightAware ADS-B
Mon 09:31:53 AM 56.2960 33.5870 281° West 376 433 33,500 947 Climbing FlightAware ADS-B
Mon 09:32:33 AM 56.3100 33.4630 282° West 376 433 34,000 395 Climbing FlightAware ADS-B
Mon 09:33:09 AM 56.3230 33.3500 282° West 387 445 34,000  Level FlightAware ADS-B
Mon 09:33:49 AM 56.3370 33.2230 281° West 395 455 34,000  Level FlightAware ADS-B
Mon 09:34:29 AM 56.3510 33.0930 281° West 395 455 34,000  Level FlightAware ADS-B
Mon 09:34:59 AM 56.3620 32.9990 282° West 394 453 34,000  Level FlightAware ADS-B
Mon 09:35:39 AM 56.3750 32.8760 281° West 392 451 34,000  Level FlightAware ADS-B
Mon 09:36:09 AM 56.3860 32.7730 281° West 391 450 34,000  Level FlightAware ADS-B
Mon 09:36:49 AM 56.3990 32.6450 280° West 389 448 34,000  Level FlightAware ADS-B
Mon 09:37:19 AM 56.4090 32.5500 281° West 388 447 34,000  Level FlightAware ADS-B
Mon 09:37:59 AM 56.4220 32.4230 281° West 388 447 34,000  Level FlightAware ADS-B
Mon 09:38:29 AM 56.4320 32.3270 281° West 389 448 34,000  Level FlightAware ADS-B
Mon 09:39:04 AM 56.4430 32.2170 280° West 390 449 34,000  Level FlightAware ADS-B
Mon 09:39:44 AM 56.4560 32.0890 280° West 389 448 34,000  Level FlightAware ADS-B
Mon 09:40:14 AM 56.4650 32.0030 281° West 388 447 34,000  Level FlightAware ADS-B
Mon 09:40:54 AM 56.4750 31.8950 280° West 388 447 34,000  Level FlightAware ADS-B
Mon 09:41:30 AM 56.4850 31.7970 281° West 388 447 34,000  Level FlightAware ADS-B
Mon 09:42:06 AM 56.4940 31.6990 279° West 388 447 34,000  Level FlightAware ADS-B
Mon 09:42:43 AM 56.5040 31.5980 280° West 388 447 34,000  Level FlightAware ADS-B
Mon 09:43:20 AM 56.5140 31.4970 280° West 388 447 34,000  Level FlightAware ADS-B
Mon 09:43:51 AM 56.5310 31.3120 280° West 376 433 34,000  Level FlightAware ADS-B
Mon 09:44:44 AM 56.5470 31.1620 281° West 376 433 34,000  Level FlightAware ADS-B
Mon 09:45:20 AM 56.5570 31.0670 281° West 376 433 34,000  Level FlightAware ADS-B
Mon 09:45:31 AM 56.5830 31.0270 320° Northwest 372 428 34,000  Level FlightAware ADS-B
Mon 09:46:06 AM 56.6200 30.9290 304° West 375 432 34,000  Level FlightAware ADS-B
Mon 09:46:41 AM 56.6600 30.8450 311° West 377 434 34,000  Level FlightAware ADS-B
Mon 09:47:23 AM 56.7050 30.7470 310° West 379 436 34,000  Level FlightAware ADS-B
Mon 09:47:58 AM 56.7410 30.6570 306° West 377 434 34,000  Level FlightAware ADS-B
Mon 09:48:33 AM 56.7730 30.5720 305° West 378 435 34,000  Level FlightAware ADS-B
Mon 09:49:08 AM 56.8100 30.4730 304° West 376 433 34,000  Level FlightAware ADS-B
Mon 09:49:43 AM 56.8420 30.3860 304° West 376 433 34,000  Level FlightAware ADS-B
Mon 09:50:13 AM 56.8730 30.3020 304° West 376 433 34,000  Level FlightAware ADS-B
Mon 09:50:49 AM 56.9080 30.2080 304° West 378 435 34,000  Level FlightAware ADS-B
Mon 09:51:28 AM 56.9460 30.1050 304° West 378 435 34,000  Level FlightAware ADS-B
Mon 09:52:03 AM 56.9770 30.0180 303° West 379 436 34,000  Level FlightAware ADS-B
Mon 09:52:38 AM 57.0140 29.9180 304° West 379 436 34,000  Level FlightAware ADS-B
Mon 09:53:13 AM 57.0450 29.8320 304° West 379 436 34,000  Level FlightAware ADS-B
Mon 09:53:53 AM 57.0860 29.7180 304° West 380 437 34,000  Level FlightAware ADS-B
Mon 09:54:28 AM 57.1190 29.6250 303° West 382 440 34,000  Level FlightAware ADS-B
Mon 09:55:03 AM 57.1520 29.5320 303° West 383 441 34,000  Level FlightAware ADS-B
Mon 09:55:38 AM 57.1840 29.4450 304° West 385 443 34,000  Level FlightAware ADS-B
Mon 09:56:13 AM 57.2220 29.3370 303° West 388 447 34,000  Level FlightAware ADS-B
Mon 09:56:50 AM 57.2560 29.2410 303° West 390 449 34,000  Level FlightAware ADS-B
Mon 09:57:28 AM 57.2940 29.1330 303° West 392 451 34,000  Level FlightAware ADS-B
Mon 09:57:58 AM 57.3240 29.0460 303° West 393 452 34,000  Level FlightAware ADS-B
Mon 09:58:33 AM 57.3590 28.9470 303° West 393 452 34,000  Level FlightAware ADS-B
Mon 09:59:13 AM 57.4010 28.8260 303° West 394 453 34,000  Level FlightAware ADS-B
Mon 09:59:46 AM 57.4320 28.7370 303° West 394 453 34,000  Level FlightAware ADS-B
Mon 10:00:24 AM 57.4690 28.6290 303° West 395 455 34,000  Level FlightAware ADS-B
Mon 10:00:56 AM 57.5000 28.5380 302° West 394 453 34,000  Level FlightAware ADS-B
Mon 10:01:32 AM 57.5370 28.4300 303° West 395 455 34,000  Level FlightAware ADS-B
Mon 10:02:08 AM 57.5720 28.3290 303° West 395 455 34,000  Level FlightAware ADS-B
Mon 10:02:43 AM 57.6060 28.2270 302° West 394 453 34,000  Level FlightAware ADS-B
Mon 10:03:16 AM 57.6380 28.1340 303° West 394 453 34,000  Level FlightAware ADS-B
Mon 10:03:50 AM 57.6690 28.0400 302° West 394 453 34,000  Level FlightAware ADS-B
Mon 10:04:27 AM 57.7060 27.9290 302° West 395 455 34,000  Level FlightAware ADS-B
Mon 10:05:00 AM 57.7380 27.8350 303° West 395 455 34,000  Level FlightAware ADS-B
Mon 10:05:36 AM 57.7730 27.7280 302° West 396 456 34,000  Level FlightAware ADS-B
Mon 10:06:14 AM 57.8090 27.6200 302° West 397 457 34,000  Level FlightAware ADS-B
Mon 10:06:46 AM 57.8390 27.5220 300° West 396 456 34,000  Level FlightAware ADS-B
Mon 10:07:20 AM 57.8600 27.4130 290° West 395 455 34,000  Level FlightAware ADS-B
Mon 10:07:57 AM 57.8840 27.2940 291° West 395 455 34,000  Level FlightAware ADS-B
Mon 10:08:30 AM 57.9060 27.1890 292° West 396 456 34,000  Level FlightAware ADS-B
Mon 10:09:07 AM 57.9300 27.0700 291° West 398 458 34,000  Level FlightAware ADS-B
Mon 10:09:44 AM 57.9530 26.9550 291° West 400 460 34,000  Level FlightAware ADS-B
Mon 10:10:16 AM 57.9750 26.8450 291° West 400 460 34,000  Level FlightAware ADS-B
Mon 10:10:49 AM 57.9960 26.7370 290° West 402 463 34,000  Level FlightAware ADS-B
Mon 10:11:43 AM 58.0220 26.6050 290° West 402 463 34,000  Level FlightAware ADS-B
Mon 10:12:17 AM 58.0530 26.4470 290° West 404 465 34,000  Level FlightAware ADS-B
Mon 10:12:52 AM 58.0750 26.3340 290° West 405 466 34,000  Level FlightAware ADS-B
Mon 10:13:26 AM 58.0970 26.2180 290° West 407 468 34,000  Level FlightAware ADS-B
Mon 10:14:03 AM 58.1210 26.0950 290° West 408 470 34,000  Level FlightAware ADS-B
Mon 10:14:34 AM 58.1400 25.9920 289° West 409 471 34,000  Level FlightAware ADS-B
Mon 10:15:11 AM 58.1620 25.8750 290° West 409 471 34,000  Level FlightAware ADS-B
Mon 10:15:47 AM 58.1870 25.7440 290° West 410 472 34,000  Level FlightAware ADS-B
Mon 10:16:20 AM 58.2080 25.6330 290° West 412 474 34,000  Level FlightAware ADS-B
Mon 10:16:57 AM 58.2300 25.5110 289° West 413 475 34,000  Level FlightAware ADS-B
Mon 10:17:30 AM 58.2520 25.3960 290° West 415 478 34,000  Level FlightAware ADS-B
Mon 10:18:04 AM 58.2740 25.2770 289° West 414 476 34,000  Level FlightAware ADS-B
Mon 10:18:38 AM 58.2940 25.1630 289° West 414 476 34,000  Level FlightAware ADS-B
Mon 10:19:17 AM 58.3190 25.0270 289° West 414 476 34,000  Level FlightAware ADS-B
Mon 10:19:53 AM 58.3410 24.9040 289° West 416 479 34,000  Level FlightAware ADS-B
Mon 10:20:25 AM 58.3610 24.7930 289° West 416 479 34,000  Level FlightAware ADS-B
Mon 10:21:00 AM 58.3820 24.6730 289° West 416 479 34,000  Level FlightAware ADS-B
Mon 10:21:32 AM 58.4020 24.5600 289° West 417 480 34,000  Level FlightAware ADS-B
Mon 10:22:12 AM 58.4240 24.4380 289° West 418 481 34,000  Level FlightAware ADS-B
Mon 10:22:48 AM 58.4450 24.2930 286° West 421 484 34,000  Level FlightAware ADS-B
Mon 10:23:24 AM 58.4650 24.1640 287° West 422 486 34,000  Level FlightAware ADS-B
Mon 10:23:55 AM 58.4810 24.0560 286° West 423 487 34,000  Level FlightAware ADS-B
Mon 10:24:32 AM 58.5010 23.9210 286° West 425 489 34,000  Level FlightAware ADS-B
Mon 10:25:05 AM 58.5180 23.8030 285° West 426 490 34,000  Level FlightAware ADS-B
Mon 10:25:41 AM 58.5370 23.6800 287° West 425 489 34,000  Level FlightAware ADS-B
Mon 10:26:16 AM 58.5560 23.5480 285° West 426 490 34,000  Level FlightAware ADS-B
Mon 10:26:53 AM 58.5760 23.4100 286° West 426 490 34,000  Level FlightAware ADS-B
Mon 10:27:26 AM 58.5930 23.2900 285° West 427 491 34,000  Level FlightAware ADS-B
Mon 10:28:02 AM 58.6110 23.1620 285° West 429 494 34,000  Level FlightAware ADS-B
Mon 10:28:37 AM 58.6300 23.0290 285° West 429 494 34,000  Level FlightAware ADS-B
Mon 10:29:11 AM 58.6460 22.9150 285° West 431 496 34,000  Level FlightAware ADS-B
Mon 10:29:47 AM 58.6650 22.7790 285° West 432 497 34,000  Level FlightAware ADS-B
Mon 10:30:23 AM 58.6840 22.6390 285° West 433 498 34,000  Level FlightAware ADS-B
Mon 10:30:58 AM 58.7020 22.5120 285° West 433 498 34,000  Level FlightAware ADS-B
Mon 10:31:31 AM 58.7180 22.3920 284° West 432 497 34,000  Level FlightAware ADS-B
Mon 10:32:04 AM 58.7350 22.2670 285° West 433 498 34,000  Level FlightAware ADS-B
Mon 10:32:42 AM 58.7530 22.1290 284° West 434 499 34,000  Level FlightAware ADS-B
Mon 10:33:16 AM 58.7700 22.0020 285° West 435 501 34,000  Level FlightAware ADS-B
Mon 10:33:51 AM 58.7870 21.8740 284° West 436 502 34,000  Level FlightAware ADS-B
Mon 10:34:23 AM 58.8040 21.7470 285° West 436 502 34,000  Level FlightAware ADS-B
Mon 10:35:01 AM 58.8220 21.6060 284° West 436 502 34,000  Level FlightAware ADS-B
Mon 10:35:36 AM 58.8390 21.4740 284° West 436 502 34,000  Level FlightAware ADS-B
Mon 10:36:20 AM 58.8600 21.3050 284° West 436 502 34,000  Level FlightAware ADS-B
Mon 10:36:54 AM 58.8760 21.1750 283° West 438 504 34,000  Level FlightAware ADS-B
Mon 10:37:22 AM 58.8890 21.0720 284° West 439 505 34,000  Level FlightAware ADS-B
Mon 10:37:58 AM 58.9090 20.9330 286° West 438 504 34,000  Level FlightAware ADS-B
Mon 10:38:32 AM 58.9360 20.8110 293° West 437 503 34,000  Level FlightAware ADS-B
Mon 10:39:08 AM 58.9600 20.6770 289° West 437 503 34,000  Level FlightAware ADS-B
Mon 10:39:40 AM 58.9800 20.5580 288° West 438 504 34,000  Level FlightAware ADS-B
Mon 10:40:18 AM 59.0030 20.4160 288° West 439 505 34,000  Level FlightAware ADS-B
Mon 10:40:54 AM 59.0240 20.2820 287° West 438 504 34,000  Level FlightAware ADS-B
Mon 10:41:11 AM 59.0346 20.2168 288° West 438 504 34,000  Level FlightAware ADS-B
Mon 10:41:41 AM 59.0523 20.1047 287° West 439 505 34,000  Level FlightAware ADS-B
Mon 10:42:12 AM 59.0705 19.9900 287° West 439 505 34,000  Level FlightAware ADS-B
Mon 10:42:50 AM 59.0934 19.8436 287° West 441 507 34,000  Level FlightAware ADS-B
Mon 10:43:21 AM 59.1113 19.7277 287° West 438 504 34,000  Level FlightAware ADS-B
Mon 10:44:01 AM 59.1346 19.5758 287° West 438 504 34,000  Level FlightAware ADS-B
Mon 10:44:31 AM 59.1517 19.4634 287° West 438 504 34,000  Level FlightAware ADS-B
Mon 10:45:02 AM 59.1698 19.3456 287° West 437 503 34,000  Level FlightAware ADS-B
Mon 10:45:41 AM 59.1926 19.1959 287° West 438 504 34,000  Level FlightAware ADS-B
Mon 10:46:11 AM 59.2094 19.0833 286° West 437 503 34,000  Level FlightAware ADS-B
Mon 10:46:41 AM 59.2264 18.9690 286° West 438 504 34,000  Level FlightAware ADS-B
Mon 10:47:11 AM 59.2433 18.8537 286° West 439 505 34,000  Level FlightAware ADS-B
Mon 10:47:41 AM 59.2599 18.7411 286° West 440 506 34,000  Level FlightAware ADS-B
Mon 10:48:11 AM 59.2768 18.6251 286° West 440 506 34,000  Level FlightAware ADS-B
Mon 10:48:42 AM 59.2938 18.5083 286° West 440 506 34,000  Level FlightAware ADS-B
Mon 10:49:22 AM 59.3160 18.3548 286° West 439 505 34,000  Level FlightAware ADS-B
Mon 10:49:58 AM 59.3356 18.2165 286° West 441 507 34,000  Level FlightAware ADS-B
Mon 10:50:31 AM 59.3534 18.0898 285° West 441 507 34,000  Level FlightAware ADS-B
Mon 10:51:01 AM 59.3698 17.9723 285° West 443 510 34,000  Level FlightAware ADS-B
Mon 10:51:31 AM 59.3858 17.8580 285° West 443 510 34,000  Level FlightAware ADS-B
Mon 10:52:01 AM 59.4018 17.7422 285° West 440 506 34,000  Level FlightAware ADS-B
Mon 10:52:31 AM 59.4173 17.6291 285° West 439 505 34,000  Level FlightAware ADS-B
Mon 10:53:02 AM 59.4334 17.5098 285° West 438 504 34,000  Level FlightAware ADS-B
Mon 10:53:32 AM 59.4491 17.3938 285° West 438 504 34,000  Level FlightAware ADS-B
Mon 10:54:11 AM 59.4689 17.2451 285° West 437 503 34,000  Level FlightAware ADS-B
Mon 10:54:42 AM 59.4847 17.1266 285° West 435 501 34,000  Level FlightAware ADS-B
Mon 10:55:21 AM 59.5046 16.9761 285° West 434 499 34,000  Level FlightAware ADS-B
Mon 10:55:52 AM 59.5200 16.8577 284° West 434 499 34,000  Level FlightAware ADS-B
Mon 10:56:31 AM 59.5392 16.7092 284° West 432 497 34,000  Level FlightAware ADS-B
Mon 10:57:07 AM 59.5560 16.5778 284° West 432 497 34,000  Level FlightAware ADS-B
Mon 10:57:46 AM 59.5759 16.4214 284° West 433 498 34,000  Level FlightAware ADS-B
Mon 10:58:25 AM 59.5946 16.2731 284° West 434 499 34,000  Level FlightAware ADS-B
Mon 10:58:55 AM 59.6089 16.1572 284° West 435 501 34,000  Level FlightAware ADS-B
Mon 10:59:27 AM 59.6240 16.0345 284° West 436 502 34,000  Level FlightAware ADS-B
Mon 11:00:06 AM 59.6425 15.8816 284° West 438 504 34,000  Level FlightAware ADS-B
Mon 11:00:39 AM 59.6579 15.7552 284° West 436 502 34,000  Level FlightAware ADS-B
Mon 11:01:16 AM 59.6740 15.6190 283° West 434 499 34,000  Level FlightAware ADS-B
Mon 11:01:21 AM 59.6777 15.5905 284° West 435 501 34,000  Level FlightAware ADS-B
Mon 11:01:52 AM 59.6910 15.4800 283° West 433 498 34,000  Level FlightAware ADS-B
Mon 11:02:27 AM 59.7070 15.3440 283° West 432 497 34,000  Level FlightAware ADS-B
Mon 11:03:05 AM 59.7240 15.1960 283° West 426 490 34,000  Level FlightAware ADS-B
Mon 11:03:38 AM 59.7380 15.0710 283° West 425 489 34,000  Level FlightAware ADS-B
Mon 11:04:14 AM 59.7540 14.9380 283° West 424 488 34,000  Level FlightAware ADS-B
Mon 11:04:45 AM 59.7660 14.8240 282° West 421 484 34,000  Level FlightAware ADS-B
Mon 11:05:16 AM 59.7790 14.7080 283° West 420 483 34,000  Level FlightAware ADS-B
Mon 11:05:52 AM 59.7950 14.5670 283° West 420 483 34,000  Level FlightAware ADS-B
Mon 11:06:26 AM 59.8080 14.4450 282° West 421 484 34,000  Level FlightAware ADS-B
Mon 11:07:02 AM 59.8230 14.3130 283° West 423 487 34,000  Level FlightAware ADS-B
Mon 11:07:38 AM 59.8380 14.1700 282° West 424 488 34,000  Level FlightAware ADS-B
Mon 11:08:14 AM 59.8520 14.0380 282° West 425 489 34,000  Level FlightAware ADS-B
Mon 11:08:46 AM 59.8660 13.9050 282° West 425 489 34,000  Level FlightAware ADS-B
Mon 11:09:30 AM 59.8840 13.7390 282° West 424 488 34,000  Level FlightAware ADS-B
Mon 11:10:03 AM 59.8960 13.6180 281° West 423 487 34,000  Level FlightAware ADS-B
Mon 11:10:40 AM 59.9180 13.4720 287° West 425 489 34,000  Level FlightAware ADS-B
Mon 11:11:04 AM 59.9310 13.3830 286° West 426 490 34,000  Level FlightAware ADS-B
Mon 11:11:45 AM 59.9480 13.2720 287° West 426 490 34,000  Level FlightAware ADS-B
Mon 11:12:25 AM 59.9730 13.1060 287° West 425 489 34,000  Level FlightAware ADS-B
Mon 11:13:01 AM 59.9950 12.9590 287° West 422 486 34,000  Level FlightAware ADS-B
Mon 11:13:31 AM 60.0120 12.8440 287° West 422 486 34,000  Level FlightAware ADS-B
Mon 11:14:07 AM 60.0320 12.7080 286° West 422 486 34,000  Level FlightAware ADS-B
Mon 11:14:43 AM 60.0510 12.5730 286° West 423 487 34,000  Level FlightAware ADS-B
Mon 11:15:19 AM 60.0700 12.4430 286° West 422 486 34,000  Level FlightAware ADS-B
Mon 11:15:55 AM 60.0900 12.3040 286° West 421 484 34,000  Level FlightAware ADS-B
Mon 11:16:31 AM 60.1090 12.1670 286° West 422 486 34,000  Level FlightAware ADS-B
Mon 11:17:07 AM 60.1270 12.0370 286° West 423 487 34,000  Level FlightAware ADS-B
Mon 11:17:44 AM 60.1460 11.9010 286° West 422 486 34,000  Level FlightAware ADS-B
Mon 11:18:19 AM 60.1640 11.7700 285° West 423 487 34,000  Level FlightAware ADS-B
Mon 11:18:55 AM 60.1830 11.6350 286° West 424 488 34,000  Level FlightAware ADS-B
Mon 11:19:32 AM 60.2020 11.4910 285° West 425 489 34,000  Level FlightAware ADS-B
Mon 11:20:05 AM 60.2190 11.3640 285° West 426 490 34,000  Level FlightAware ADS-B
Mon 11:20:43 AM 60.2390 11.2200 286° West 426 490 34,000  Level FlightAware ADS-B
Mon 11:21:16 AM 60.2530 11.1120 285° West 426 490 34,000  Level FlightAware ADS-B
Mon 11:21:53 AM 60.2760 10.9390 285° West 426 490 34,000  Level FlightAware ADS-B
Mon 11:22:25 AM 60.2910 10.8190 284° West 426 490 34,000  Level FlightAware ADS-B
Mon 11:23:01 AM 60.3090 10.6780 285° West 426 490 34,000  Level FlightAware ADS-B
Mon 11:23:37 AM 60.3270 10.5400 285° West 426 490 34,000  Level FlightAware ADS-B
Mon 11:24:09 AM 60.3430 10.4160 285° West 427 491 34,000  Level FlightAware ADS-B
Mon 11:24:45 AM 60.3590 10.2830 284° West 426 490 34,000  Level FlightAware ADS-B
Mon 11:25:21 AM 60.3770 10.1430 285° West 427 491 34,000  Level FlightAware ADS-B
Mon 11:25:57 AM 60.3940 9.9990 283° West 428 493 34,000  Level FlightAware ADS-B
Mon 11:26:33 AM 60.4110 9.8590 284° West 429 494 34,000  Level FlightAware ADS-B
Mon 11:27:05 AM 60.4260 9.7360 284° West 430 495 34,000  Level FlightAware ADS-B
Mon 11:27:41 AM 60.4430 9.5960 284° West 429 494 34,000  Level FlightAware ADS-B
Mon 11:28:17 AM 60.4600 9.4540 284° West 431 496 34,000  Level FlightAware ADS-B
Mon 11:28:53 AM 60.4760 9.3160 283° West 432 497 34,000  Level FlightAware ADS-B
Mon 11:29:26 AM 60.4910 9.1800 283° West 434 499 34,000  Level FlightAware ADS-B
Mon 11:30:03 AM 60.5080 9.0370 284° West 436 502 34,000  Level FlightAware ADS-B
Mon 11:30:37 AM 60.5230 8.9030 283° West 436 502 34,000  Level FlightAware ADS-B
Mon 11:31:08 AM 60.5370 8.7810 283° West 435 501 34,000  Level FlightAware ADS-B
Mon 11:31:47 AM 60.5550 8.6220 283° West 435 501 34,000  Level FlightAware ADS-B
Mon 11:32:23 AM 60.5700 8.4810 282° West 435 501 34,000  Level FlightAware ADS-B
Mon 11:32:56 AM 60.5840 8.3510 282° West 434 499 34,000  Level FlightAware ADS-B
Mon 11:33:31 AM 60.5990 8.2100 282° West 433 498 34,000  Level FlightAware ADS-B
Mon 11:34:09 AM 60.6160 8.0580 283° West 434 499 34,000  Level FlightAware ADS-B
Mon 11:34:39 AM 60.6280 7.9380 282° West 434 499 34,000  Level FlightAware ADS-B
Mon 11:35:18 AM 60.6440 7.7920 283° West 434 499 34,000  Level FlightAware ADS-B
Mon 11:35:53 AM 60.6590 7.6440 282° West 434 499 34,000  Level FlightAware ADS-B
Mon 11:36:11 AM 60.6665 7.5716 282° West 434 499 34,000  Level FlightAware ADS-B (EGBP)
Mon 11:36:41 AM 60.6785 7.4533 282° West 433 498 34,000  Level FlightAware ADS-B (EGBP)
Mon 11:37:21 AM 60.6949 7.2906 282° West 434 499 34,000  Level FlightAware ADS-B (EGBP)
Mon 11:38:01 AM 60.7106 7.1317 282° West 434 499 34,000  Level FlightAware ADS-B (EGBP)
Mon 11:38:31 AM 60.7225 7.0100 281° West 435 501 34,000  Level FlightAware ADS-B (EGBP)
Mon 11:39:01 AM 60.7342 6.8899 281° West 436 502 34,000  Level FlightAware ADS-B (EGBP)
Mon 11:39:41 AM 60.7493 6.7315 281° West 435 501 34,000  Level FlightAware ADS-B (EGBP)
Mon 11:40:11 AM 60.7611 6.6078 281° West 436 502 34,000  Level FlightAware ADS-B (EGBP)
Mon 11:40:51 AM 60.7761 6.4476 281° West 435 501 34,000  Level FlightAware ADS-B (EGBP)
Mon 11:41:30 AM 60.7909 6.2884 281° West 435 501 34,000  Level FlightAware ADS-B (EGBP)
Mon 11:42:10 AM 60.8056 6.1270 281° West 436 502 34,000  Level FlightAware ADS-B (EGBP)
Mon 11:42:49 AM 60.8199 5.9687 281° West 437 503 34,000  Level FlightAware ADS-B (EGBP)
Mon 11:43:21 AM 60.8312 5.8415 280° West 436 502 34,000  Level FlightAware ADS-B (EGBP)
Mon 11:43:59 AM 60.8450 5.6843 280° West 434 499 34,000  Level FlightAware ADS-B (EGBP)
Mon 11:44:36 AM 60.8580 5.5360 280° West 433 498 34,000  Level FlightAware ADS-B
Mon 11:45:13 AM 60.8700 5.3900 280° West 434 499 34,000  Level FlightAware ADS-B
Mon 11:45:43 AM 60.8810 5.2650 280° West 434 499 34,000  Level FlightAware ADS-B
Mon 11:46:24 AM 60.8940 5.1000 279° West 434 499 34,000  Level FlightAware ADS-B
Mon 11:46:57 AM 60.9050 4.9700 280° West 435 501 34,000  Level FlightAware ADS-B
Mon 11:47:29 AM 60.9160 4.8340 280° West 435 501 34,000  Level FlightAware ADS-B
Mon 11:48:08 AM 60.9290 4.6770 280° West 436 502 34,000  Level FlightAware ADS-B
Mon 11:48:43 AM 60.9400 4.5330 279° West 436 502 34,000  Level FlightAware ADS-B
Mon 11:49:15 AM 60.9500 4.4030 279° West 435 501 34,000  Level FlightAware ADS-B
Mon 11:49:53 AM 60.9610 4.2530 279° West 436 502 34,000  Level FlightAware ADS-B
Mon 11:50:29 AM 60.9730 4.1000 279° West 438 504 34,000  Level FlightAware ADS-B
Mon 11:51:00 AM 60.9820 3.9730 278° West 438 504 34,000  Level FlightAware ADS-B
Mon 11:51:36 AM 60.9930 3.8250 279° West 437 503 34,000  Level FlightAware ADS-B
Mon 11:52:13 AM 61.0040 3.6730 279° West 436 502 34,000  Level FlightAware ADS-B
Mon 11:52:46 AM 61.0140 3.5400 279° West 436 502 34,000  Level FlightAware ADS-B
Mon 11:53:19 AM 61.0230 3.4050 278° West 435 501 34,000  Level FlightAware ADS-B
Mon 11:53:55 AM 61.0330 3.2570 278° West 437 503 34,000  Level FlightAware ADS-B
Mon 11:54:31 AM 61.0430 3.1060 278° West 439 505 34,000  Level FlightAware ADS-B
Mon 11:55:06 AM 61.0530 2.9600 278° West 440 506 34,000  Level FlightAware ADS-B
Mon 11:55:41 AM 61.0630 2.8150 278° West 439 505 34,000  Level FlightAware ADS-B
Mon 11:56:13 AM 61.0710 2.6820 277° West 439 505 34,000  Level FlightAware ADS-B
Mon 11:56:52 AM 61.0810 2.5220 277° West 438 504 34,000  Level FlightAware ADS-B
Mon 11:57:26 AM 61.0900 2.3860 278° West 438 504 34,000  Level FlightAware ADS-B
Mon 11:58:02 AM 61.0990 2.2320 277° West 440 506 34,000  Level FlightAware ADS-B
Mon 11:58:37 AM 61.1080 2.0870 277° West 441 507 34,000  Level FlightAware ADS-B
Mon 11:59:14 AM 61.1170 1.9330 277° West 441 507 34,000  Level FlightAware ADS-B
Mon 11:59:46 AM 61.1240 1.8000 276° West 440 506 34,000  Level FlightAware ADS-B
Mon 12:00:19 PM 61.1320 1.6620 277° West 441 507 34,000  Level FlightAware ADS-B
Mon 12:00:56 PM 61.1400 1.5090 276° West 441 507 34,000  Level FlightAware ADS-B
Mon 12:01:33 PM 61.1490 1.3520 277° West 441 507 34,000  Level FlightAware ADS-B
Mon 12:02:07 PM 61.1570 1.2080 277° West 440 506 34,000  Level FlightAware ADS-B
Mon 12:02:39 PM 61.1640 1.0750 276° West 440 506 34,000  Level FlightAware ADS-B
Mon 12:03:16 PM 61.1720 0.9200 276° West 441 507 34,000  Level FlightAware ADS-B
Mon 12:03:51 PM 61.1790 0.7740 276° West 442 509 34,000  Level FlightAware ADS-B
Mon 12:04:27 PM 61.1860 0.6210 275° West 443 510 34,000  Level FlightAware ADS-B
Mon 12:05:00 PM 61.1930 0.4830 276° West 445 512 34,000 600 Level FlightAware ADS-B
Mon 12:05:37 PM 61.2000 0.3260 275° West 439 505 34,700 973 Climbing FlightAware ADS-B
Mon 12:06:14 PM 61.2070 0.1730 275° West 441 507 35,200 686 Climbing FlightAware ADS-B
Mon 12:06:47 PM 61.2190 0.0320 280° West 448 516 35,500 738 Climbing FlightAware ADS-B
Mon 12:07:19 PM 61.2380 -0.1000 287° West 444 511 36,000 435 Climbing FlightAware ADS-B
Mon 12:07:56 PM 61.2680 -0.2400 294° West 440 506 36,000  Level FlightAware ADS-B
Mon 12:08:33 PM 61.3010 -0.3830 296° West 440 506 36,000  Level FlightAware ADS-B
Mon 12:09:06 PM 61.3280 -0.5050 295° West 440 506 36,000  Level FlightAware ADS-B
Mon 12:09:44 PM 61.3600 -0.6510 295° West 441 507 36,000  Level FlightAware ADS-B
Mon 12:10:17 PM 61.3880 -0.7750 295° West 440 506 36,000  Level FlightAware ADS-B
Mon 12:10:49 PM 61.4170 -0.9080 295° West 440 506 36,000  Level FlightAware ADS-B
Mon 12:11:43 PM 61.4570 -1.0950 294° West 441 507 36,000  Level FlightAware ADS-B
Mon 12:12:12 PM 61.4860 -1.2280 295° West 445 512 36,000  Level FlightAware ADS-B
Mon 12:12:50 PM 61.5170 -1.3720 294° West 446 513 36,000  Level FlightAware ADS-B
Mon 12:13:26 PM 61.5470 -1.5150 294° West 448 516 36,000  Level FlightAware ADS-B
Mon 12:14:03 PM 61.5770 -1.6570 294° West 449 517 36,000  Level FlightAware ADS-B
Mon 12:14:33 PM 61.6040 -1.7840 294° West 450 518 36,000  Level FlightAware ADS-B
Mon 12:15:09 PM 61.6320 -1.9220 293° West 450 518 36,000  Level FlightAware ADS-B
Mon 12:15:47 PM 61.6650 -2.0790 294° West 450 518 36,000  Level FlightAware ADS-B
Mon 12:16:21 PM 61.6930 -2.2170 293° West 449 517 36,000  Level FlightAware ADS-B
Mon 12:16:54 PM 61.7200 -2.3480 294° West 448 516 36,000  Level FlightAware ADS-B
Mon 12:17:27 PM 61.7450 -2.4750 293° West 449 517 36,000  Level FlightAware ADS-B
Mon 12:18:03 PM 61.7750 -2.6240 293° West 449 517 36,000  Level FlightAware ADS-B
Mon 12:18:48 PM 61.8130 -2.8110 293° West 450 518 36,000  Level FlightAware ADS-B
Mon 12:19:29 PM 61.8430 -2.9670 292° West 447 514 36,000  Level FlightAware ADS-B
Mon 12:20:12 PM 61.8780 -3.1450 293° West 449 517 36,000  Level FlightAware ADS-B
Mon 12:20:46 PM 61.9060 -3.2880 293° West 451 519 36,000  Level FlightAware ADS-B
Mon 12:21:21 PM 61.9330 -3.4250 293° West 451 519 36,000  Level FlightAware ADS-B
Mon 12:22:13 PM 61.9730 -3.6360 292° West 450 518 36,000  Level FlightAware ADS-B
Mon 12:22:46 PM 61.9930 -3.7470 291° West 450 518 36,000  Level FlightAware ADS-B
Mon 12:23:22 PM 62.0160 -3.8730 291° West 450 518 36,000  Level FlightAware ADS-B
Mon 12:25:00 PM 62.0199 -4.2727 271° West  Level Estimated
Mon 12:25:27 PM 62.1230 -4.4410 271° West 454 522 36,000  Level FlightAware ADS-B
Mon 12:26:18 PM 62.1600 -4.6450 291° West 453 521 36,000  Level FlightAware ADS-B
Mon 12:26:54 PM 62.1830 -4.7730 291° West 453 521 36,000  Level FlightAware ADS-B
Mon 12:27:30 PM 62.2060 -4.9020 291° West 453 521 36,000  Level FlightAware ADS-B
Mon 12:28:07 PM 62.2300 -5.0340 291° West 453 521 36,000  Level FlightAware ADS-B
Mon 12:28:41 PM 62.2520 -5.1550 291° West 453 521 36,000  Level FlightAware ADS-B
Mon 12:29:18 PM 62.2750 -5.2880 290° West 453 521 36,000  Level FlightAware ADS-B
Mon 12:29:52 PM 62.2970 -5.4090 291° West 453 521 36,000  Level FlightAware ADS-B
Mon 12:30:30 PM 62.3490 -5.7140 290° West 450 518 36,000  Level FlightAware ADS-B
Mon 12:31:07 PM 62.3760 -5.8730 290° West 450 518 36,000  Level FlightAware ADS-B
Mon 12:31:53 PM 62.4020 -6.0330 289° West 450 518 36,000  Level FlightAware ADS-B
Mon 12:32:30 PM 62.4250 -6.1650 291° West 450 518 36,000  Level FlightAware ADS-B
Mon 12:33:01 PM 62.4550 -6.3460 290° West 451 519 36,000  Level FlightAware ADS-B
Mon 12:33:38 PM 62.4760 -6.4800 289° West 451 519 36,000  Level FlightAware ADS-B
Mon 12:34:12 PM 62.4960 -6.6040 289° West 451 519 36,000  Level FlightAware ADS-B
Mon 12:34:48 PM 62.5160 -6.7340 288° West 451 519 36,000  Level FlightAware ADS-B
Mon 12:35:24 PM 62.5370 -6.8650 289° West 451 519 36,000  Level FlightAware ADS-B
Mon 12:36:14 PM 62.5860 -7.1630 290° West 455 524 36,000  Level FlightAware ADS-B
Mon 12:36:50 PM 62.6060 -7.2960 288° West 455 524 36,000  Level FlightAware ADS-B
Mon 12:37:27 PM 62.6260 -7.4330 288° West 455 524 36,000  Level FlightAware ADS-B
Mon 12:38:03 PM 62.6460 -7.5660 288° West 455 524 36,000  Level FlightAware ADS-B
Mon 12:38:40 PM 62.6670 -7.7030 289° West 455 524 36,000  Level FlightAware ADS-B
Mon 12:39:28 PM 62.6930 -7.8810 288° West 455 524 36,000  Level FlightAware ADS-B
Mon 12:40:05 PM 62.7130 -8.0180 288° West 455 524 36,000  Level FlightAware ADS-B
Mon 12:40:42 PM 62.7650 -8.3310 290° West 450 518 36,000  Level FlightAware ADS-B
Mon 12:41:19 PM 62.7870 -8.4820 288° West 450 518 36,000  Level FlightAware ADS-B
Mon 12:41:55 PM 62.8050 -8.6150 287° West 450 518 36,000  Level FlightAware ADS-B
Mon 12:42:34 PM 62.8360 -8.8160 289° West 450 518 36,000  Level FlightAware ADS-B
Mon 12:43:14 PM 62.8570 -8.9680 287° West 450 518 36,000  Level FlightAware ADS-B
Mon 12:43:50 PM 62.8760 -9.1020 287° West 450 518 36,000  Level FlightAware ADS-B
Mon 12:44:28 PM 62.9070 -9.3140 288° West 451 519 36,000  Level FlightAware ADS-B
Mon 12:45:04 PM 62.9290 -9.4740 287° West 450 518 36,000  Level FlightAware ADS-B
Mon 12:45:36 PM 62.9480 -9.6120 287° West 448 516 36,000  Level FlightAware ADS-B
Mon 12:46:13 PM 62.9690 -9.7700 286° West 447 514 36,000  Level FlightAware ADS-B
Mon 12:46:47 PM 62.9900 -9.9190 287° West 447 514 36,000  Level FlightAware ADS-B
Mon 12:47:18 PM 63.0080 -10.0550 286° West 447 514 36,000  Level FlightAware ADS-B
Mon 12:47:58 PM 63.0320 -10.2300 287° West 447 514 36,000  Level FlightAware ADS-B
Mon 12:48:34 PM 63.0530 -10.3850 287° West 447 514 36,000  Level FlightAware ADS-B
Mon 12:49:10 PM 63.0750 -10.5420 287° West 447 514 36,000  Level FlightAware ADS-B
Mon 12:49:43 PM 63.0940 -10.6850 286° West 447 514 36,000  Level FlightAware ADS-B
Mon 12:50:14 PM 63.1120 -10.8220 286° West 446 513 36,000  Level FlightAware ADS-B
Mon 12:50:44 PM 63.1290 -10.9510 286° West 447 514 36,000  Level FlightAware ADS-B
Mon 12:51:18 PM 63.1490 -11.1010 287° West 448 516 36,000  Level FlightAware ADS-B
Mon 12:51:58 PM 63.1720 -11.2790 286° West 449 517 36,000  Level FlightAware ADS-B
Mon 12:52:30 PM 63.1900 -11.4210 286° West 448 516 36,000  Level FlightAware ADS-B
Mon 12:53:07 PM 63.2100 -11.5800 286° West 447 514 36,000  Level FlightAware ADS-B
Mon 12:53:42 PM 63.2300 -11.7360 286° West 447 514 36,000  Level FlightAware ADS-B
Mon 12:54:18 PM 63.2500 -11.8940 286° West 448 516 36,000  Level FlightAware ADS-B
Mon 12:54:50 PM 63.2670 -12.0360 285° West 447 514 36,000  Level FlightAware ADS-B
Mon 12:55:26 PM 63.2870 -12.1970 286° West 447 514 36,000  Level FlightAware ADS-B
Mon 12:56:04 PM 63.3070 -12.3640 285° West 449 517 36,000  Level FlightAware ADS-B
Mon 12:56:38 PM 63.3250 -12.5140 285° West 450 518 36,000  Level FlightAware ADS-B
Mon 12:57:12 PM 63.3430 -12.6670 285° West 450 518 36,000  Level FlightAware ADS-B
Mon 12:57:46 PM 63.3600 -12.8160 284° West 449 517 36,000  Level FlightAware ADS-B
Mon 12:58:20 PM 63.3780 -12.9650 285° West 449 517 36,000  Level FlightAware ADS-B
Mon 12:58:57 PM 63.3970 -13.1310 284° West 449 517 36,000  Level FlightAware ADS-B
Mon 12:59:31 PM 63.4140 -13.2840 284° West 449 517 36,000  Level FlightAware ADS-B
Mon 01:00:07 PM 63.4320 -13.4480 284° West 449 517 36,000  Level FlightAware ADS-B
Mon 01:00:44 PM 63.4500 -13.6100 284° West 450 518 36,000  Level FlightAware ADS-B
Mon 01:01:16 PM 63.4660 -13.7550 284° West 449 517 36,000  Level FlightAware ADS-B
Mon 01:01:52 PM 63.4840 -13.9190 284° West 447 514 36,000  Level FlightAware ADS-B
Mon 01:02:28 PM 63.5020 -14.0820 284° West 446 513 36,000  Level FlightAware ADS-B
Mon 01:03:04 PM 63.5190 -14.2440 283° West 444 511 36,000  Level FlightAware ADS-B
Mon 01:03:36 PM 63.5340 -14.3860 283° West 444 511 36,000  Level FlightAware ADS-B
Mon 01:04:10 PM 63.5490 -14.5380 283° West 445 512 36,000  Level FlightAware ADS-B
Mon 01:04:46 PM 63.5660 -14.6990 283° West 446 513 36,000  Level FlightAware ADS-B
Mon 01:05:22 PM 63.5830 -14.8630 283° West 447 514 36,000  Level FlightAware ADS-B
Mon 01:05:58 PM 63.5990 -15.0250 283° West 447 514 36,000  Level FlightAware ADS-B
Mon 01:06:30 PM 63.6130 -15.1700 282° West 448 516 36,000  Level FlightAware ADS-B
Mon 01:07:08 PM 63.6300 -15.3380 283° West 449 517 36,000  Level FlightAware ADS-B
Mon 01:07:40 PM 63.6440 -15.4840 282° West 450 518 36,000  Level FlightAware ADS-B
Mon 01:08:17 PM 63.6600 -15.6560 282° West 450 518 36,000  Level FlightAware ADS-B
Mon 01:08:54 PM 63.6760 -15.8270 282° West 451 519 36,000  Level FlightAware ADS-B
Mon 01:09:24 PM 63.6880 -15.9630 281° West 451 519 36,000  Level FlightAware ADS-B
Mon 01:10:02 PM 63.7050 -16.1390 282° West 450 518 36,000  Level FlightAware ADS-B
Mon 01:10:38 PM 63.7190 -16.3020 281° West 448 516 36,000  Level FlightAware ADS-B
Mon 01:11:04 PM 63.7300 -16.4190 282° West 447 514 36,000  Level FlightAware ADS-B
Mon 01:11:44 PM 63.7460 -16.6050 281° West 444 511 36,000  Level FlightAware ADS-B
Mon 01:12:24 PM 63.7620 -16.7860 281° West 445 512 36,000  Level FlightAware ADS-B
Mon 01:12:57 PM 63.7740 -16.9320 281° West 445 512 36,000  Level FlightAware ADS-B
Mon 01:13:32 PM 63.7880 -17.0930 281° West 447 514 36,000  Level FlightAware ADS-B
Mon 01:14:04 PM 63.8000 -17.2430 280° West 448 516 36,000  Level FlightAware ADS-B
Mon 01:14:41 PM 63.8140 -17.4090 281° West 447 514 36,000  Level FlightAware ADS-B
Mon 01:15:18 PM 63.8280 -17.5820 280° West 445 512 36,000  Level FlightAware ADS-B
Mon 01:15:54 PM 63.8410 -17.7450 280° West 443 510 36,000  Level FlightAware ADS-B
Mon 01:16:30 PM 63.8540 -17.9090 280° West 442 509 36,000  Level FlightAware ADS-B
Mon 01:17:03 PM 63.8650 -18.0580 280° West 441 507 36,000  Level FlightAware ADS-B
Mon 01:17:36 PM 63.8770 -18.2100 280° West 440 506 36,000  Level FlightAware ADS-B
Mon 01:18:13 PM 63.8880 -18.3640 279° West 439 505 36,000  Level FlightAware ADS-B
Mon 01:18:46 PM 63.9000 -18.5260 280° West 440 506 36,000  Level FlightAware ADS-B
Mon 01:19:22 PM 63.9120 -18.6900 280° West 442 509 36,000  Level FlightAware ADS-B
Mon 01:19:59 PM 63.9240 -18.8570 279° West 442 509 36,000  Level FlightAware ADS-B
Mon 01:20:33 PM 63.9350 -19.0130 279° West 442 509 36,000  Level FlightAware ADS-B
Mon 01:21:05 PM 63.9460 -19.1650 279° West 442 509 36,000  Level FlightAware ADS-B
Mon 01:21:39 PM 63.9560 -19.3180 279° West 441 507 36,000  Level FlightAware ADS-B
Mon 01:22:16 PM 63.9670 -19.4860 279° West 440 506 36,000  Level FlightAware ADS-B
Mon 01:22:52 PM 63.9780 -19.6490 279° West 441 507 36,000  Level FlightAware ADS-B
Mon 01:23:25 PM 63.9880 -19.8020 279° West 441 507 36,000  Level FlightAware ADS-B
Mon 01:24:00 PM 63.9990 -19.9660 279° West 441 507 36,000  Level FlightAware ADS-B
Mon 01:24:36 PM 64.0170 -20.1230 285° West 444 511 36,000  Level FlightAware ADS-B
Mon 01:25:14 PM 64.0400 -20.2910 287° West 444 511 36,000  Level FlightAware ADS-B
Mon 01:25:46 PM 64.0600 -20.4340 288° West 445 512 36,000  Level FlightAware ADS-B
Mon 01:26:22 PM 64.0800 -20.5890 287° West 447 514 36,000  Level FlightAware ADS-B
Mon 01:26:58 PM 64.1040 -20.7620 288° West 449 517 36,000  Level FlightAware ADS-B
Mon 01:27:32 PM 64.1220 -20.9050 286° West 449 517 36,000  Level FlightAware ADS-B
Mon 01:28:07 PM 64.1450 -21.0780 287° West 451 519 36,000  Level FlightAware ADS-B
Mon 01:28:44 PM 64.1660 -21.2440 286° West 452 520 36,000  Level FlightAware ADS-B
Mon 01:29:14 PM 64.1840 -21.3780 287° West 453 521 36,000  Level FlightAware ADS-B
Mon 01:29:53 PM 64.2060 -21.5560 286° West 452 520 36,000  Level FlightAware ADS-B
Mon 01:30:28 PM 64.2270 -21.7200 286° West 451 519 36,000  Level FlightAware ADS-B
Mon 01:31:00 PM 64.2450 -21.8650 286° West 452 520 36,000  Level FlightAware ADS-B
Mon 01:31:37 PM 64.2660 -22.0340 286° West 453 521 36,000  Level FlightAware ADS-B
Mon 01:32:13 PM 64.2860 -22.2010 286° West 454 522 36,000  Level FlightAware ADS-B
Mon 01:32:48 PM 64.3050 -22.3550 286° West 455 524 36,000  Level FlightAware ADS-B
Mon 01:33:18 PM 64.3220 -22.5050 285° West 453 521 36,000  Level FlightAware ADS-B
Mon 01:33:58 PM 64.3450 -22.6940 286° West 452 520 36,000  Level FlightAware ADS-B
Mon 01:34:32 PM 64.3620 -22.8420 285° West 453 521 36,000  Level FlightAware ADS-B
Mon 01:35:06 PM 64.3800 -23.0000 285° West 453 521 36,000  Level FlightAware ADS-B
Mon 01:35:44 PM 64.4010 -23.1850 285° West 451 519 36,000  Level FlightAware ADS-B
Mon 01:36:17 PM 64.4180 -23.3340 285° West 451 519 36,000  Level FlightAware ADS-B
Mon 01:36:54 PM 64.4380 -23.5120 285° West 449 517 36,000  Level FlightAware ADS-B
Mon 01:37:26 PM 64.4540 -23.6600 284° West 449 517 36,000  Level FlightAware ADS-B
Mon 01:38:01 PM 64.4710 -23.8130 285° West 449 517 36,000  Level FlightAware ADS-B
Mon 01:38:37 PM 64.4890 -23.9840 284° West 449 517 36,000  Level FlightAware ADS-B
Mon 01:39:12 PM 64.5070 -24.1520 284° West 450 518 36,000  Level FlightAware ADS-B
Mon 01:39:48 PM 64.5250 -24.3210 284° West 451 519 36,000  Level FlightAware ADS-B
Mon 01:40:28 PM 64.5440 -24.5040 284° West 452 520 36,000  Level FlightAware ADS-B
Mon 01:41:03 PM 64.5610 -24.6750 283° West 452 520 36,000  Level FlightAware ADS-B
Mon 01:41:40 PM 64.5790 -24.8470 284° West 451 519 36,000  Level FlightAware ADS-B
Mon 01:42:14 PM 64.5950 -25.0080 283° West 449 517 36,000  Level FlightAware ADS-B
Mon 01:42:48 PM 64.6100 -25.1620 283° West 449 517 36,000  Level FlightAware ADS-B
Mon 01:43:20 PM 64.6250 -25.3150 283° West 450 518 36,000  Level FlightAware ADS-B
Mon 01:43:58 PM 64.6430 -25.4940 283° West 450 518 36,000  Level FlightAware ADS-B
Mon 01:44:34 PM 64.6590 -25.6660 282° West 450 518 36,000  Level FlightAware ADS-B
Mon 01:45:08 PM 64.6740 -25.8220 283° West 449 517 36,000  Level FlightAware ADS-B
Mon 01:45:45 PM 64.6900 -26.0050 282° West 450 518 36,000  Level FlightAware ADS-B
Mon 01:46:16 PM 64.7040 -26.1480 283° West 449 517 36,000  Level FlightAware ADS-B
Mon 01:46:55 PM 64.7210 -26.3350 282° West 449 517 36,000  Level FlightAware ADS-B
Mon 01:47:26 PM 64.7330 -26.4740 281° West 449 517 36,000  Level FlightAware ADS-B
Mon 01:48:04 PM 64.7500 -26.6680 282° West 449 517 36,000  Level FlightAware ADS-B
Mon 01:48:54 PM 64.7700 -26.9050 281° West 449 517 36,000  Level FlightAware ADS-B
Mon 01:49:23 PM 64.7820 -27.0450 281° West 450 518 36,000  Level FlightAware ADS-B
Mon 01:50:02 PM 64.7960 -27.2090 281° West 451 519 36,000  Level FlightAware ADS-B
Mon 01:50:36 PM 64.8110 -27.3900 281° West 450 518 36,000  Level FlightAware ADS-B
Mon 01:51:12 PM 64.8250 -27.5620 281° West 449 517 36,000  Level FlightAware ADS-B
Mon 01:51:50 PM 64.8400 -27.7470 281° West 450 518 36,000  Level FlightAware ADS-B
Mon 01:52:22 PM 64.8520 -27.8990 281° West 450 518 36,000  Level FlightAware ADS-B
Mon 01:52:54 PM 64.8640 -28.0550 280° West 449 517 36,000  Level FlightAware ADS-B
Mon 01:53:35 PM 64.8790 -28.2500 280° West 449 517 36,000  Level FlightAware ADS-B
Mon 01:54:08 PM 64.8900 -28.4020 280° West 449 517 36,000  Level FlightAware ADS-B
Mon 01:54:42 PM 64.9030 -28.5710 280° West 449 517 36,000  Level FlightAware ADS-B
Mon 01:55:14 PM 64.9130 -28.7170 279° West 448 516 36,000  Level FlightAware ADS-B
Mon 01:55:55 PM 64.9250 -28.8910 279° West 448 516 36,000  Level FlightAware ADS-B
Mon 01:56:29 PM 64.9340 -29.0310 279° West 448 516 36,000  Level FlightAware ADS-B
Mon 01:57:05 PM 64.9510 -29.2590 280° West 447 514 36,000  Level FlightAware ADS-B
Mon 01:57:37 PM 64.9600 -29.3910 279° West 447 514 36,000  Level FlightAware ADS-B
Mon 01:58:12 PM 64.9730 -29.5800 279° West 446 513 36,000  Level FlightAware ADS-B
Mon 01:59:02 PM 64.9860 -29.7890 278° West 446 513 36,000  Level FlightAware ADS-B
Mon 01:59:38 PM 64.9990 -29.9900 279° West 442 509 36,000  Level FlightAware ADS-B
Mon 02:00:25 PM 65.0070 -30.2190 275° West 444 511 36,000  Level FlightAware ADS-B
Mon 02:00:58 PM 65.0120 -30.3760 274° West 445 512 36,000  Level FlightAware ADS-B
Mon 02:01:34 PM 65.0180 -30.5520 275° West 447 514 36,000  Level FlightAware ADS-B
Mon 02:02:10 PM 65.0210 -30.7060 273° West 447 514 36,000  Level FlightAware ADS-B
Mon 02:02:46 PM 65.0280 -30.8990 275° West 447 514 36,000  Level FlightAware ADS-B
Mon 02:03:21 PM 65.0320 -31.0750 273° West 448 516 36,000  Level FlightAware ADS-B
Mon 02:03:56 PM 65.0370 -31.2410 274° West 446 513 36,000  Level FlightAware ADS-B
Mon 02:04:30 PM 65.0400 -31.3760 273° West 446 513 36,000  Level FlightAware ADS-B
Mon 02:05:06 PM 65.0430 -31.5260 273° West 446 513 36,000  Level FlightAware ADS-B
Mon 02:05:44 PM 65.0460 -31.6830 273° West 446 513 36,000  Level FlightAware ADS-B
Mon 02:06:20 PM 65.0500 -31.8330 274° West 446 513 36,000  Level FlightAware ADS-B
Mon 02:06:56 PM 65.0530 -31.9820 273° West 446 513 36,000  Level FlightAware ADS-B
Mon 02:07:30 PM 65.0560 -32.1230 273° West 446 513 36,000  Level FlightAware ADS-B
Mon 02:08:06 PM 65.0590 -32.2730 273° West 446 513 36,000  Level FlightAware ADS-B
Mon 02:08:42 PM 65.0630 -32.4230 274° West 446 513 36,000  Level FlightAware ADS-B
Mon 02:09:18 PM 65.0660 -32.5720 273° West 446 513 36,000  Level FlightAware ADS-B
Mon 02:09:54 PM 65.0690 -32.7220 273° West 446 513 36,000  Level FlightAware ADS-B
Mon 02:10:33 PM 65.0730 -32.8840 273° West 446 513 36,000  Level FlightAware ADS-B
Mon 02:11:16 PM 65.0770 -33.0620 273° West 446 513 36,000  Level FlightAware ADS-B
Mon 02:11:52 PM 65.0800 -33.2120 273° West 446 513 36,000  Level FlightAware ADS-B
Mon 02:12:28 PM 65.0830 -33.3620 273° West 446 513 36,000  Level FlightAware ADS-B
Mon 02:13:04 PM 65.0870 -33.5110 274° West 446 513 36,000  Level FlightAware ADS-B
Mon 02:13:40 PM 65.0900 -33.6610 273° West 446 513 36,000  Level FlightAware ADS-B
Mon 02:16:00 PM 64.9585 -34.2138 241° Southwest  Level Estimated
Mon 02:17:00 PM 64.9015 -34.4491 240° Southwest  Level Estimated
Mon 02:18:00 PM 64.8441 -34.6834 240° Southwest  Level Estimated
Mon 02:19:00 PM 64.7864 -34.9167 240° Southwest  Level Estimated
Mon 02:20:00 PM 64.7283 -35.1489 240° Southwest  Level Estimated
Mon 02:21:00 PM 64.6698 -35.3802 240° Southwest  Level Estimated
Mon 02:22:00 PM 64.6110 -35.6105 239° Southwest  Level Estimated
Mon 02:23:00 PM 64.5518 -35.8397 239° Southwest  Level Estimated
Mon 02:24:00 PM 64.4923 -36.0680 239° Southwest  Level Estimated
Mon 02:25:00 PM 64.4324 -36.2953 239° Southwest  Level Estimated
Mon 02:26:00 PM 64.3722 -36.5216 238° Southwest  Level Estimated
Mon 02:27:00 PM 64.3116 -36.7469 238° Southwest  Level Estimated
Mon 02:28:00 PM 64.2507 -36.9712 238° Southwest  Level Estimated
Mon 02:29:00 PM 64.1894 -37.1945 238° Southwest  Level Estimated
Mon 02:30:00 PM 64.1278 -37.4168 238° Southwest  Level Estimated
Mon 02:31:00 PM 64.0658 -37.6382 237° Southwest  Level Estimated
Mon 02:32:00 PM 64.0036 -37.8585 237° Southwest  Level Estimated
Mon 02:33:00 PM 63.9409 -38.0779 237° Southwest  Level Estimated
Mon 02:34:00 PM 63.8780 -38.2963 237° Southwest  Level Estimated
Mon 02:35:00 PM 63.8147 -38.5137 237° Southwest  Level Estimated
Mon 02:36:00 PM 63.7511 -38.7301 236° Southwest  Level Estimated
Mon 02:37:00 PM 63.6872 -38.9456 236° Southwest  Level Estimated
Mon 02:38:00 PM 63.6230 -39.1601 236° Southwest  Level Estimated
Mon 02:39:00 PM 63.5698 -39.3362 236° Southwest  Level Estimated
Mon 02:40:00 PM 63.5164 -39.5117 236° Southwest  Level Estimated
Mon 02:41:00 PM 63.4627 -39.6865 236° Southwest  Level Estimated
Mon 02:42:00 PM 63.4089 -39.8606 235° Southwest  Level Estimated
Mon 02:43:00 PM 63.3549 -40.0341 235° Southwest  Level Estimated
Mon 02:44:00 PM 63.3006 -40.2069 235° Southwest  Level Estimated
Mon 02:45:00 PM 63.2461 -40.3791 235° Southwest  Level Estimated
Mon 02:46:00 PM 63.1914 -40.5507 235° Southwest  Level Estimated
Mon 02:47:00 PM 63.1366 -40.7216 235° Southwest  Level Estimated
Mon 02:48:00 PM 63.0815 -40.8918 234° Southwest  Level Estimated
Mon 02:49:00 PM 63.0262 -41.0614 234° Southwest  Level Estimated
Mon 02:50:00 PM 62.9707 -41.2304 234° Southwest  Level Estimated
Mon 02:51:00 PM 62.9150 -41.3987 234° Southwest  Level Estimated
Mon 02:52:00 PM 62.8591 -41.5663 234° Southwest  Level Estimated
Mon 02:53:00 PM 62.8030 -41.7334 234° Southwest  Level Estimated
Mon 02:54:00 PM 62.7467 -41.8998 234° Southwest  Level Estimated
Mon 02:55:00 PM 62.6902 -42.0655 233° Southwest  Level Estimated
Mon 02:56:00 PM 62.6335 -42.2307 233° Southwest  Level Estimated
Mon 02:57:00 PM 62.5767 -42.3952 233° Southwest  Level Estimated
Mon 02:58:00 PM 62.5196 -42.5590 233° Southwest  Level Estimated
Mon 02:59:00 PM 62.4623 -42.7223 233° Southwest  Level Estimated
Mon 03:00:00 PM 62.4049 -42.8849 233° Southwest  Level Estimated
Mon 03:01:00 PM 62.3472 -43.0469 233° Southwest  Level Estimated
Mon 03:02:00 PM 62.2894 -43.2082 232° Southwest  Level Estimated
Mon 03:03:00 PM 62.2314 -43.3690 232° Southwest  Level Estimated
Mon 03:04:00 PM 62.1732 -43.5291 232° Southwest  Level Estimated
Mon 03:05:00 PM 62.1148 -43.6886 232° Southwest  Level Estimated
Mon 03:06:00 PM 62.0563 -43.8475 232° Southwest  Level Estimated
Mon 03:07:00 PM 61.9975 -44.0058 232° Southwest  Level Estimated
Mon 03:08:00 PM 61.9386 -44.1635 232° Southwest  Level Estimated
Mon 03:09:00 PM 61.8795 -44.3206 231° Southwest  Level Estimated
Mon 03:10:00 PM 61.8202 -44.4771 231° Southwest  Level Estimated
Mon 03:11:00 PM 61.7607 -44.6329 231° Southwest  Level Estimated
Mon 03:11:55 PM 63.9630 -50.2450 231° Southwest 454 522 36,000  Level FlightAware ADS-B
Mon 03:12:00 PM 61.7011 -44.7882 231° Southwest  Level Estimated
Mon 03:12:27 PM 63.9400 -50.3880 250° West 454 522 36,000  Level FlightAware ADS-B
Mon 03:13:03 PM 63.9140 -50.5520 250° West 455 524 36,000  Level FlightAware ADS-B
Mon 03:13:37 PM 63.8910 -50.7010 251° West 455 524 36,000  Level FlightAware ADS-B
Mon 03:14:14 PM 63.8650 -50.8610 250° West 456 525 36,000  Level FlightAware ADS-B
Mon 03:14:47 PM 63.8400 -51.0150 250° West 455 524 36,000  Level FlightAware ADS-B
Mon 03:15:23 PM 63.8140 -51.1780 250° West 456 525 36,000  Level FlightAware ADS-B
Mon 03:15:51 PM 63.7940 -51.2990 250° West 456 525 36,000  Level FlightAware ADS-B
Mon 03:16:25 PM 63.7690 -51.4510 250° West 457 526 36,000  Level FlightAware ADS-B
Mon 03:17:01 PM 63.7420 -51.6160 250° West 458 527 36,000  Level FlightAware ADS-B
Mon 03:17:33 PM 63.7180 -51.7540 249° West 459 528 36,000  Level FlightAware ADS-B
Mon 03:18:08 PM 63.6920 -51.9110 250° West 461 531 36,000  Level FlightAware ADS-B
Mon 03:18:47 PM 63.6620 -52.0860 249° West 462 532 36,000  Level FlightAware ADS-B
Mon 03:19:19 PM 63.6370 -52.2290 249° West 463 533 36,000  Level FlightAware ADS-B
Mon 03:19:55 PM 63.6090 -52.3900 249° West 463 533 36,000  Level FlightAware ADS-B
Mon 03:20:32 PM 63.5810 -52.5530 249° West 464 534 36,000  Level FlightAware ADS-B
Mon 03:23:00 PM 63.4802 -53.0262 249° West  Level FlightAware Approximate
Mon 03:24:00 PM 63.4455 -53.2234 249° West  Level FlightAware Approximate
Mon 03:24:31 PM 63.3900 -53.6110 249° West 466 536 36,000  Level FlightAware ADS-B
Mon 03:25:07 PM 63.3630 -53.7540 247° West 465 535 36,000  Level FlightAware ADS-B
Mon 03:25:39 PM 63.3330 -53.9130 247° West 466 536 36,000  Level FlightAware ADS-B
Mon 03:26:17 PM 63.3010 -54.0860 248° West 467 537 36,000  Level FlightAware ADS-B
Mon 03:26:49 PM 63.2730 -54.2310 247° West 469 540 36,000  Level FlightAware ADS-B
Mon 03:27:30 PM 63.2420 -54.3860 246° West 469 540 36,000  Level FlightAware ADS-B
Mon 03:28:07 PM 63.2140 -54.5250 246° West 469 540 36,000  Level FlightAware ADS-B
Mon 03:28:43 PM 63.1870 -54.6590 246° West 469 540 36,000  Level FlightAware ADS-B
Mon 03:29:19 PM 63.1600 -54.7930 246° West 469 540 36,000  Level FlightAware ADS-B
Mon 03:29:55 PM 63.1330 -54.9280 246° West 469 540 36,000  Level FlightAware ADS-B
Mon 03:30:31 PM 63.1060 -55.0620 246° West 469 540 36,000  Level FlightAware ADS-B
Mon 03:31:08 PM 63.0780 -55.2000 246° West 469 540 36,000  Level FlightAware ADS-B
Mon 03:31:43 PM 63.0520 -55.3300 246° West 469 540 36,000  Level FlightAware ADS-B
Mon 03:32:19 PM 63.0250 -55.4630 246° West 469 540 36,000  Level FlightAware ADS-B
Mon 03:32:55 PM 62.9980 -55.5970 246° West 469 540 36,000  Level FlightAware ADS-B
Mon 03:33:32 PM 62.9700 -55.7340 246° West 469 540 36,000  Level FlightAware ADS-B
Mon 03:34:08 PM 62.9430 -55.8680 246° West 469 540 36,000  Level FlightAware ADS-B
Mon 03:34:44 PM 62.9160 -56.0010 246° West 469 540 36,000  Level FlightAware ADS-B
Mon 03:35:22 PM 62.8880 -56.1420 247° West 469 540 36,000  Level FlightAware ADS-B
Mon 03:35:58 PM 62.8610 -56.2750 246° West 469 540 36,000  Level FlightAware ADS-B
Mon 03:36:34 PM 62.8340 -56.4070 246° West 469 540 36,000  Level FlightAware ADS-B
Mon 03:39:00 PM 62.7127 -56.9687 245° Southwest  Level FlightAware Approximate
Mon 03:40:00 PM 62.6622 -57.1981 244° Southwest  Level FlightAware Approximate
Mon 03:41:00 PM 62.6113 -57.4268 244° Southwest  Level FlightAware Approximate
Mon 03:42:00 PM 62.5600 -57.6547 244° Southwest  Level FlightAware Approximate
Mon 03:43:00 PM 62.5084 -57.8819 244° Southwest  Level FlightAware Approximate
Mon 03:44:00 PM 62.4564 -58.1082 244° Southwest  Level FlightAware Approximate
Mon 03:45:00 PM 62.4041 -58.3337 243° Southwest  Level FlightAware Approximate
Mon 03:46:00 PM 62.3513 -58.5585 243° Southwest  Level FlightAware Approximate
Mon 03:47:00 PM 62.2983 -58.7824 243° Southwest  Level FlightAware Approximate
Mon 03:48:00 PM 62.2448 -59.0056 243° Southwest  Level FlightAware Approximate
Mon 03:49:00 PM 62.1910 -59.2280 243° Southwest  Level FlightAware Approximate
Mon 03:50:00 PM 62.1369 -59.4496 242° Southwest  Level FlightAware Approximate
Mon 03:51:00 PM 62.0824 -59.6704 242° Southwest  Level FlightAware Approximate
Mon 03:52:00 PM 62.0275 -59.8904 242° Southwest  Level FlightAware Approximate
Mon 03:53:00 PM 61.9560 -60.0816 221° Southwest  Level FlightAware Approximate
Mon 03:54:00 PM 61.8679 -60.2443 221° Southwest  Level FlightAware Approximate
Mon 03:55:00 PM 61.7795 -60.4061 221° Southwest  Level FlightAware Approximate
Mon 03:56:00 PM 61.6910 -60.5669 221° Southwest  Level FlightAware Approximate
Mon 03:57:00 PM 61.6023 -60.7268 221° Southwest  Level FlightAware Approximate
Mon 03:58:00 PM 61.5134 -60.8858 220° Southwest  Level FlightAware Approximate
Mon 03:59:00 PM 61.4243 -61.0439 220° Southwest  Level FlightAware Approximate
Mon 03:59:02 PM 61.0500 -61.6667 221° Southwest 470 541 36,000  Level Montreal Center
Mon 04:00:00 PM 61.3350 -61.2011 220° Southwest  Level FlightAware Approximate
Mon 04:00:02 PM 60.9667 -61.8167 221° Southwest 460 529 36,000  Level Montreal Center
Mon 04:01:00 PM 61.2465 -61.3596 221° Southwest  Level FlightAware Approximate
Mon 04:01:02 PM 60.8667 -62.0000 222° Southwest 470 541 36,000  Level Montreal Center
Mon 04:02:00 PM 61.1580 -61.5178 221° Southwest  Level FlightAware Approximate
Mon 04:02:02 PM 60.7500 -62.1833 218° Southwest 470 541 36,000  Level Montreal Center
Mon 04:03:00 PM 61.0694 -61.6752 221° Southwest  Level FlightAware Approximate
Mon 04:03:02 PM 60.6500 -62.3667 222° Southwest 470 541 36,000  Level Montreal Center
Mon 04:04:00 PM 60.9805 -61.8316 221° Southwest  Level FlightAware Approximate
Mon 04:04:02 PM 60.5833 -62.6000 240° Southwest 470 541 36,000  Level Montreal Center
Mon 04:05:02 PM 60.5333 -62.8333 247° West 470 541 36,000  Level Montreal Center
Mon 04:06:02 PM 60.4833 -63.1000 249° West 470 541 36,000  Level Montreal Center
Mon 04:07:02 PM 60.4333 -63.3500 248° West 470 541 36,000  Level Montreal Center
Mon 04:08:02 PM 60.3833 -63.6167 249° West 480 552 36,000  Level Montreal Center
Mon 04:09:02 PM 60.3333 -63.8667 248° West 470 541 36,000  Level Montreal Center
Mon 04:10:02 PM 60.2833 -64.1000 247° West 470 541 36,000  Level Montreal Center
Mon 04:11:02 PM 60.2500 -64.3500 255° West 470 541 36,000  Level Montreal Center
Mon 04:12:02 PM 60.2000 -64.6000 248° West 470 541 36,000  Level Montreal Center
Mon 04:13:02 PM 60.1500 -64.8333 247° West 470 541 36,000  Level Montreal Center
Mon 04:14:02 PM 60.0833 -65.0500 238° Southwest 470 541 36,000  Level Montreal Center
Mon 04:15:02 PM 60.0167 -65.2500 236° Southwest 470 541 36,000  Level Montreal Center
Mon 04:16:02 PM 59.9167 -65.4500 225° Southwest 470 541 36,000  Level Montreal Center
Mon 04:17:02 PM 59.8167 -65.6167 220° Southwest 470 541 36,000  Level Montreal Center
Mon 04:18:02 PM 59.7167 -65.7833 220° Southwest 470 541 36,000  Level Montreal Center
Mon 04:19:02 PM 59.6167 -65.9667 223° Southwest 470 541 36,000  Level Montreal Center
Mon 04:20:02 PM 59.5167 -66.1333 220° Southwest 470 541 36,000  Level Montreal Center
Mon 04:21:02 PM 59.4167 -66.3000 220° Southwest 460 529 36,000  Level Montreal Center
Mon 04:22:02 PM 59.3167 -66.4667 220° Southwest 460 529 36,000  Level Montreal Center
Mon 04:23:02 PM 59.2167 -66.6167 218° Southwest 470 541 36,000  Level Montreal Center
Mon 04:24:02 PM 59.1167 -66.7833 221° Southwest 470 541 36,000  Level Montreal Center
Mon 04:25:02 PM 59.0167 -66.9333 218° Southwest 460 529 36,000  Level Montreal Center
Mon 04:26:02 PM 58.9333 -67.0833 223° Southwest 460 529 36,000  Level Montreal Center
Mon 04:27:02 PM 58.8167 -67.2833 222° Southwest 460 529 36,000  Level Montreal Center
Mon 04:28:02 PM 58.7333 -67.4333 223° Southwest 460 529 36,000  Level Montreal Center
Mon 04:29:02 PM 58.6167 -67.5833 214° Southwest 460 529 36,000  Level Montreal Center
Mon 04:31:00 PM 58.4817 -67.7527 213° Southwest  Level FlightAware Approximate
Mon 04:38:00 PM 57.9289 -68.4302 213° Southwest  Level FlightAware Approximate
Mon 04:39:00 PM 57.8497 -68.5253 213° Southwest  Level FlightAware Approximate
Mon 04:40:00 PM 57.7704 -68.6200 212° Southwest  Level FlightAware Approximate
Mon 04:40:09 PM 57.5000 -69.2667 213° Southwest 460 529 36,000  Level Gander Center
Mon 04:41:00 PM 57.6910 -68.7142 212° Southwest  Level FlightAware Approximate
Mon 04:41:07 PM 57.4000 -69.3667 208° Southwest 460 529 36,000  Level Montreal Center
Mon 04:42:00 PM 57.6115 -68.8081 212° Southwest  Level FlightAware Approximate
Mon 04:42:07 PM 57.2833 -69.5167 215° Southwest 460 529 36,000  Level Montreal Center
Mon 04:43:00 PM 57.5320 -68.9015 212° Southwest  Level FlightAware Approximate
Mon 04:43:07 PM 57.1833 -69.6167 208° Southwest 460 529 36,000  Level Montreal Center
Mon 04:44:00 PM 57.4524 -68.9945 212° Southwest  Level FlightAware Approximate
Mon 04:44:07 PM 57.0833 -69.7667 219° Southwest 460 529 36,000  Level Montreal Center
Mon 04:45:00 PM 57.3731 -69.0883 213° Southwest  Level FlightAware Approximate
Mon 04:45:07 PM 56.9833 -69.9000 216° Southwest 450 518 36,000  Level Montreal Center
Mon 04:46:07 PM 56.8667 -70.0500 215° Southwest 450 518 36,000  Level Montreal Center
Mon 04:47:07 PM 56.7667 -70.1500 209° Southwest 450 518 36,000  Level Montreal Center
Mon 04:48:07 PM 56.6667 -70.3000 220° Southwest 450 518 36,000  Level Montreal Center
Mon 04:49:07 PM 56.5667 -70.4333 216° Southwest 450 518 36,000  Level Montreal Center
Mon 04:50:07 PM 56.4500 -70.5667 212° Southwest 450 518 36,000  Level Montreal Center
Mon 04:51:07 PM 56.3667 -70.6667 214° Southwest 450 518 36,000  Level Montreal Center
Mon 04:52:07 PM 56.2667 -70.8000 217° Southwest 450 518 36,000  Level Montreal Center
Mon 04:53:07 PM 56.1500 -70.9500 216° Southwest 450 518 36,000  Level Montreal Center
Mon 04:54:07 PM 56.0333 -71.0833 213° Southwest 440 506 36,000  Level Montreal Center
Mon 04:55:07 PM 55.9333 -71.1833 209° Southwest 440 506 36,000  Level Montreal Center
Mon 04:56:07 PM 55.8500 -71.3167 222° Southwest 450 518 36,000  Level Montreal Center
Mon 04:57:07 PM 55.7333 -71.4167 206° Southwest 440 506 36,000  Level Montreal Center
Mon 04:58:07 PM 55.6333 -71.5500 217° Southwest 440 506 36,000  Level Montreal Center
Mon 04:59:07 PM 55.5167 -71.6833 213° Southwest 450 518 36,000  Level Montreal Center
Mon 05:00:07 PM 55.4167 -71.8000 214° Southwest 440 506 36,000  Level Montreal Center
Mon 05:01:07 PM 55.3333 -71.9000 214° Southwest 450 518 36,000  Level Montreal Center
Mon 05:02:07 PM 55.2167 -72.0333 213° Southwest 440 506 36,000  Level Montreal Center
Mon 05:03:07 PM 55.1000 -72.1667 213° Southwest 440 506 36,000  Level Montreal Center
Mon 05:04:07 PM 55.0000 -72.3000 217° Southwest 450 518 36,000  Level Montreal Center
Mon 05:05:07 PM 54.9000 -72.3833 206° Southwest 440 506 36,000  Level Montreal Center
Mon 05:06:07 PM 54.7833 -72.5167 213° Southwest 440 506 36,000  Level Montreal Center
Mon 05:08:00 PM 54.6229 -72.6323 203° Southwest  Level FlightAware Approximate
Mon 05:10:09 PM 54.3667 -73.0167 203° Southwest 440 506 36,000  Level Gander Center
Mon 05:11:06 PM 54.2833 -73.0833 205° Southwest 440 506 36,000  Level Montreal Center
Mon 05:13:06 PM 54.0667 -73.3000 210° Southwest 440 506 36,000  Level Montreal Center
Mon 05:14:06 PM 53.9667 -73.4167 214° Southwest 440 506 36,000  Level Montreal Center
Mon 05:15:00 PM 54.0150 -73.0619 203° Southwest  Level FlightAware Approximate
Mon 05:15:06 PM 53.8667 -73.5333 215° Southwest 430 495 36,000  Level Montreal Center
Mon 05:16:06 PM 53.7500 -73.6500 211° Southwest 440 506 36,000  Level Montreal Center
Mon 05:17:06 PM 53.6500 -73.7500 211° Southwest 430 495 36,000  Level Montreal Center
Mon 05:18:06 PM 53.5333 -73.8333 203° Southwest 430 495 36,000  Level Montreal Center
Mon 05:19:06 PM 53.4333 -73.9333 211° Southwest 430 495 36,000  Level Montreal Center
Mon 05:20:06 PM 53.3167 -74.0167 203° Southwest 440 506 36,000  Level Montreal Center
Mon 05:21:06 PM 53.2167 -74.1000 207° Southwest 440 506 36,000  Level Montreal Center
Mon 05:22:06 PM 53.1000 -74.2000 207° Southwest 440 506 36,000  Level Montreal Center
Mon 05:23:06 PM 53.0000 -74.2833 207° Southwest 440 506 36,000  Level Montreal Center
Mon 05:24:06 PM 52.8833 -74.3667 203° Southwest 440 506 36,000  Level Montreal Center
Mon 05:25:06 PM 52.8000 -74.4667 216° Southwest 430 495 36,000  Level Montreal Center
Mon 05:26:06 PM 52.6833 -74.5500 203° Southwest 430 495 36,000  Level Montreal Center
Mon 05:27:06 PM 52.5500 -74.6333 201° Southwest 430 495 36,000  Level Montreal Center
Mon 05:28:06 PM 52.4500 -74.7167 207° Southwest 430 495 36,000  Level Montreal Center
Mon 05:29:06 PM 52.3333 -74.8000 204° Southwest 430 495 36,000  Level Montreal Center
Mon 05:30:06 PM 52.2167 -74.9167 212° Southwest 430 495 36,000  Level Montreal Center
Mon 05:31:06 PM 52.1167 -74.9833 202° Southwest 430 495 36,000  Level Montreal Center
Mon 05:32:06 PM 52.0167 -75.0833 212° Southwest 420 483 36,000  Level Montreal Center
Mon 05:33:06 PM 51.9000 -75.1500 199° South 420 483 36,000  Level Montreal Center
Mon 05:34:06 PM 51.8000 -75.2333 207° Southwest 430 495 36,000  Level Montreal Center
Mon 05:35:06 PM 51.7000 -75.3167 207° Southwest 430 495 36,000  Level Montreal Center
Mon 05:36:06 PM 51.5833 -75.4000 204° Southwest 420 483 36,000  Level Montreal Center
Mon 05:37:06 PM 51.4833 -75.4833 207° Southwest 420 483 36,000  Level Montreal Center
Mon 05:38:06 PM 51.3833 -75.5667 207° Southwest 420 483 36,000  Level Montreal Center
Mon 05:39:06 PM 51.2667 -75.6500 204° Southwest 420 483 36,000  Level Montreal Center
Mon 05:40:06 PM 51.1667 -75.7167 203° Southwest 420 483 36,000  Level Montreal Center
Mon 05:41:06 PM 51.0500 -75.8000 204° Southwest 420 483 36,000  Level Montreal Center
Mon 05:42:06 PM 50.9500 -75.8833 208° Southwest 420 483 36,000  Level Montreal Center
Mon 05:43:06 PM 50.8500 -75.9667 208° Southwest 420 483 36,000  Level Montreal Center
Mon 05:44:06 PM 50.7500 -76.0500 208° Southwest 410 472 36,000  Level Montreal Center
Mon 05:45:06 PM 50.6333 -76.1167 200° South 410 472 36,000  Level Montreal Center
Mon 05:46:06 PM 50.5333 -76.2000 208° Southwest 420 483 36,000  Level Montreal Center
Mon 05:47:06 PM 50.4333 -76.2833 208° Southwest 420 483 36,000  Level Montreal Center
Mon 05:49:06 PM 50.2167 -76.4167 202° Southwest 410 472 36,000  Level Montreal Center
Mon 05:50:06 PM 50.1000 -76.4833 200° South 410 472 36,000  Level Montreal Center
Mon 05:51:06 PM 50.0000 -76.5667 208° Southwest 410 472 36,000  Level Montreal Center
Mon 05:52:06 PM 49.8833 -76.6500 205° Southwest 410 472 36,000  Level Montreal Center
Mon 05:53:06 PM 49.7833 -76.7167 203° Southwest 410 472 36,000  Level Montreal Center
Mon 05:54:06 PM 49.6833 -76.8000 208° Southwest 410 472 36,000  Level Montreal Center
Mon 05:55:06 PM 49.5833 -76.8667 203° Southwest 410 472 36,000  Level Montreal Center
Mon 05:56:06 PM 49.4833 -76.9500 208° Southwest 400 460 36,000  Level Montreal Center
Mon 05:57:06 PM 49.3667 -77.0000 196° South 430 495 36,000  Level Montreal Center
Mon 05:58:06 PM 49.2833 -77.0667 208° Southwest 400 460 36,000  Level Montreal Center
Mon 05:59:06 PM 49.1667 -77.1500 205° Southwest 400 460 36,000  Level Montreal Center
Mon 06:00:06 PM 49.0667 -77.2167 204° Southwest 410 472 36,000  Level Montreal Center
Mon 06:01:06 PM 48.9667 -77.3000 209° Southwest 400 460 36,000  Level Montreal Center
Mon 06:02:06 PM 48.8500 -77.3667 201° Southwest 400 460 36,000  Level Montreal Center
Mon 06:03:06 PM 48.7500 -77.4500 209° Southwest 400 460 36,000  Level Montreal Center
Mon 06:08:26 PM 48.2120 -77.7960 209° Southwest 411 473 36,000  Level FlightAware ADS-B
Mon 06:09:01 PM 48.1520 -77.8350 203° Southwest 411 473 36,000  Level FlightAware ADS-B
Mon 06:09:43 PM 48.0740 -77.8810 202° Southwest 411 473 36,000  Level FlightAware ADS-B
Mon 06:10:19 PM 48.0170 -77.9140 201° Southwest 410 472 36,000  Level FlightAware ADS-B
Mon 06:10:54 PM 47.9500 -77.9530 201° Southwest 410 472 36,000  Level FlightAware ADS-B
Mon 06:11:29 PM 47.8940 -77.9860 202° Southwest 410 472 36,000  Level FlightAware ADS-B
Mon 06:12:08 PM 47.8350 -78.0190 201° Southwest 410 472 36,000  Level FlightAware ADS-B
Mon 06:12:44 PM 47.7810 -78.0500 201° Southwest 410 472 36,000  Level FlightAware ADS-B
Mon 06:13:20 PM 47.6900 -78.1040 202° Southwest 410 472 36,000  Level FlightAware ADS-B
Mon 06:13:56 PM 47.6260 -78.1410 201° Southwest 407 468 36,000  Level FlightAware ADS-B
Mon 06:14:28 PM 47.5710 -78.1720 201° Southwest 405 466 36,000  Level FlightAware ADS-B
Mon 06:15:05 PM 47.5070 -78.2090 201° Southwest 404 465 36,000  Level FlightAware ADS-B
Mon 06:15:42 PM 47.4420 -78.2460 201° Southwest 404 465 36,000  Level FlightAware ADS-B
Mon 06:16:14 PM 47.3860 -78.2780 201° Southwest 405 466 36,000  Level FlightAware ADS-B
Mon 06:16:50 PM 47.3240 -78.3140 201° Southwest 405 466 36,000  Level FlightAware ADS-B
Mon 06:17:26 PM 47.2600 -78.3500 201° Southwest 405 466 36,000  Level FlightAware ADS-B
Mon 06:18:02 PM 47.1960 -78.3860 201° Southwest 406 467 36,000  Level FlightAware ADS-B
Mon 06:18:34 PM 47.1430 -78.4170 202° Southwest 406 467 36,000  Level FlightAware ADS-B
Mon 06:19:08 PM 47.0830 -78.4510 201° Southwest 405 466 36,000  Level FlightAware ADS-B
Mon 06:19:46 PM 47.0150 -78.4880 200° South 405 466 36,000  Level FlightAware ADS-B
Mon 06:20:20 PM 46.9560 -78.5210 201° Southwest 405 466 36,000  Level FlightAware ADS-B
Mon 06:20:56 PM 46.8930 -78.5570 201° Southwest 406 467 36,000  Level FlightAware ADS-B
Mon 06:21:32 PM 46.8290 -78.5930 201° Southwest 405 466 36,000  Level FlightAware ADS-B
Mon 06:22:04 PM 46.7760 -78.6220 201° Southwest 403 464 36,000  Level FlightAware ADS-B
Mon 06:22:40 PM 46.7110 -78.6580 201° Southwest 402 463 36,000  Level FlightAware ADS-B
Mon 06:23:14 PM 46.6530 -78.6900 201° Southwest 402 463 36,000  Level FlightAware ADS-B
Mon 06:23:52 PM 46.5870 -78.7270 201° Southwest 403 464 36,000  Level FlightAware ADS-B
Mon 06:24:24 PM 46.5300 -78.7590 201° Southwest 403 464 36,000  Level FlightAware ADS-B
Mon 06:25:00 PM 46.4680 -78.7930 201° Southwest 403 464 36,000  Level FlightAware ADS-B
Mon 06:25:36 PM 46.4050 -78.8270 200° South 403 464 36,000  Level FlightAware ADS-B
Mon 06:26:10 PM 46.3450 -78.8600 201° Southwest 404 465 36,000  Level FlightAware ADS-B
Mon 06:26:44 PM 46.2870 -78.8920 201° Southwest 407 468 36,000  Level FlightAware ADS-B
Mon 06:27:19 PM 46.2260 -78.9250 201° Southwest 408 470 36,000  Level FlightAware ADS-B
Mon 06:27:55 PM 46.1620 -78.9600 201° Southwest 408 470 36,000  Level FlightAware ADS-B
Mon 06:28:29 PM 46.1010 -78.9930 201° Southwest 408 470 36,000  Level FlightAware ADS-B
Mon 06:29:05 PM 46.0370 -79.0270 200° South 406 467 36,000  Level FlightAware ADS-B
Mon 06:29:41 PM 45.9760 -79.0610 201° Southwest 406 467 36,000  Level FlightAware ADS-B
Mon 06:30:17 PM 45.9110 -79.0960 201° Southwest 406 467 36,000  Level FlightAware ADS-B
Mon 06:30:49 PM 45.8550 -79.1260 200° South 404 465 36,000  Level FlightAware ADS-B
Mon 06:31:26 PM 45.7910 -79.1600 200° South 402 463 36,000  Level FlightAware ADS-B
Mon 06:32:02 PM 45.7270 -79.1950 201° Southwest 402 463 36,000  Level FlightAware ADS-B
Mon 06:32:34 PM 45.6710 -79.2240 200° South 402 463 36,000  Level FlightAware ADS-B
Mon 06:33:10 PM 45.6090 -79.2570 200° South 400 460 36,000  Level FlightAware ADS-B
Mon 06:33:46 PM 45.5470 -79.2900 200° South 398 458 36,000  Level FlightAware ADS-B
Mon 06:34:22 PM 45.4840 -79.3240 201° Southwest 399 459 36,000  Level FlightAware ADS-B
Mon 06:34:58 PM 45.4240 -79.3560 201° Southwest 400 460 36,000  Level FlightAware ADS-B
Mon 06:35:34 PM 45.3610 -79.3890 200° South 401 461 36,000  Level FlightAware ADS-B
Mon 06:36:06 PM 45.3030 -79.4190 200° South 403 464 36,000  Level FlightAware ADS-B
Mon 06:36:42 PM 45.2420 -79.4520 201° Southwest 402 463 36,000  Level FlightAware ADS-B
Mon 06:37:18 PM 45.1800 -79.4840 200° South 400 460 36,000  Level FlightAware ADS-B
Mon 06:37:51 PM 45.1230 -79.5130 200° South 398 458 36,000  Level FlightAware ADS-B
Mon 06:38:27 PM 45.0630 -79.5450 201° Southwest 396 456 36,000  Level FlightAware ADS-B
Mon 06:39:02 PM 45.0020 -79.5760 200° South 394 453 36,000  Level FlightAware ADS-B
Mon 06:39:35 PM 44.9460 -79.6060 201° Southwest 394 453 36,000  Level FlightAware ADS-B
Mon 06:40:11 PM 44.8820 -79.6390 200° South 394 453 36,000  Level FlightAware ADS-B
Mon 06:40:47 PM 44.8230 -79.6690 200° South 393 452 36,000  Level FlightAware ADS-B
Mon 06:41:23 PM 44.7590 -79.7020 200° South 391 450 36,000  Level FlightAware ADS-B
Mon 06:41:56 PM 44.7050 -79.7300 200° South 392 451 36,000  Level FlightAware ADS-B
Mon 06:42:31 PM 44.6450 -79.7610 200° South 395 455 36,000  Level FlightAware ADS-B
Mon 06:43:08 PM 44.5810 -79.7970 202° Southwest 390 449 36,000  Level FlightAware ADS-B
Mon 06:43:44 PM 44.5270 -79.8420 211° Southwest 384 442 36,000  Level FlightAware ADS-B
Mon 06:44:16 PM 44.4780 -79.8870 213° Southwest 383 441 36,000  Level FlightAware ADS-B
Mon 06:44:51 PM 44.4280 -79.9320 213° Southwest 383 441 36,000  Level FlightAware ADS-B
Mon 06:45:26 PM 44.3750 -79.9800 213° Southwest 383 441 36,000  Level FlightAware ADS-B
Mon 06:46:00 PM 44.3250 -80.0250 213° Southwest 380 437 36,000  Level FlightAware ADS-B
Mon 06:46:37 PM 44.2690 -80.0750 213° Southwest 382 440 36,000  Level FlightAware ADS-B
Mon 06:47:12 PM 44.2170 -80.1220 213° Southwest 385 443 36,000  Level FlightAware ADS-B
Mon 06:47:48 PM 44.1620 -80.1700 212° Southwest 386 444 36,000  Level FlightAware ADS-B
Mon 06:48:21 PM 44.1130 -80.2140 213° Southwest 388 447 36,000  Level FlightAware ADS-B
Mon 06:48:56 PM 44.0610 -80.2600 212° Southwest 388 447 36,000  Level FlightAware ADS-B
Mon 06:49:32 PM 44.0050 -80.3100 213° Southwest 386 444 36,000  Level FlightAware ADS-B
Mon 06:50:05 PM 43.9580 -80.3510 212° Southwest 384 442 36,000  Level FlightAware ADS-B
Mon 06:50:42 PM 43.9020 -80.4010 213° Southwest 383 441 36,000  Level FlightAware ADS-B
Mon 06:51:15 PM 43.8530 -80.4440 212° Southwest 382 440 36,000  Level FlightAware ADS-B
Mon 06:51:51 PM 43.7990 -80.4910 212° Southwest 383 441 36,000  Level FlightAware ADS-B
Mon 06:52:26 PM 43.7460 -80.5370 212° Southwest 383 441 36,000  Level FlightAware ADS-B
Mon 06:53:03 PM 43.6930 -80.5840 213° Southwest 381 438 36,000  Level FlightAware ADS-B
Mon 06:53:39 PM 43.6360 -80.6340 212° Southwest 379 436 36,000  Level FlightAware ADS-B
Mon 06:54:10 PM 43.5930 -80.6710 212° Southwest 381 438 36,000  Level FlightAware ADS-B
Mon 06:54:47 PM 43.5370 -80.7200 212° Southwest 381 438 36,000  Level FlightAware ADS-B
Mon 06:55:22 PM 43.4840 -80.7660 212° Southwest 382 440 36,000  Level FlightAware ADS-B
Mon 06:55:56 PM 43.4310 -80.8110 212° Southwest 382 440 36,000  Level FlightAware ADS-B
Mon 06:56:33 PM 43.3770 -80.8580 212° Southwest 382 440 36,000  Level FlightAware ADS-B
Mon 06:57:06 PM 43.3280 -80.9010 213° Southwest 382 440 36,000  Level FlightAware ADS-B
Mon 06:57:43 PM 43.2740 -80.9470 212° Southwest 381 438 36,000  Level FlightAware ADS-B
Mon 06:58:15 PM 43.2250 -80.9890 212° Southwest 382 440 36,000  Level FlightAware ADS-B
Mon 06:58:52 PM 43.1690 -81.0370 212° Southwest 380 437 36,000  Level FlightAware ADS-B
Mon 06:59:24 PM 43.1220 -81.0770 212° Southwest 381 438 36,000  Level FlightAware ADS-B
Mon 06:59:57 PM 43.0730 -81.1190 212° Southwest 380 437 36,000  Level FlightAware ADS-B
Mon 07:00:27 PM 43.0270 -81.1560 210° Southwest 386 444 36,000  Level FlightAware ADS-B
Mon 07:01:07 PM 42.9620 -81.1950 204° Southwest 387 445 36,000  Level FlightAware ADS-B
Mon 07:01:43 PM 42.9020 -81.2330 205° Southwest 387 445 36,000  Level FlightAware ADS-B
Mon 07:02:14 PM 42.8530 -81.2630 204° Southwest 386 444 36,000  Level FlightAware ADS-B
Mon 07:02:50 PM 42.7930 -81.3000 204° Southwest 386 444 36,000  Level FlightAware ADS-B
Mon 07:03:24 PM 42.7380 -81.3340 204° Southwest 386 444 36,000  Level FlightAware ADS-B
Mon 07:04:03 PM 42.6780 -81.3710 204° Southwest 386 444 36,000  Level FlightAware ADS-B
Mon 07:04:34 PM 42.6250 -81.4030 204° Southwest 388 447 36,000  Level FlightAware ADS-B
Mon 07:05:11 PM 42.5650 -81.4400 204° Southwest 389 448 36,000  Level FlightAware ADS-B
Mon 07:05:48 PM 42.5040 -81.4770 204° Southwest 391 450 36,000  Level FlightAware ADS-B
Mon 07:06:20 PM 42.4520 -81.5090 204° Southwest 391 450 36,000  Level FlightAware ADS-B
Mon 07:06:57 PM 42.3920 -81.5460 204° Southwest 390 449 36,000  Level FlightAware ADS-B
Mon 07:07:33 PM 42.3330 -81.5810 204° Southwest 389 448 36,000  Level FlightAware ADS-B
Mon 07:08:04 PM 42.2800 -81.6130 204° Southwest 388 447 36,000  Level FlightAware ADS-B
Mon 07:08:41 PM 42.2200 -81.6490 204° Southwest 388 447 36,000  Level FlightAware ADS-B
Mon 07:09:23 PM 42.1510 -81.6910 204° Southwest 387 445 36,000  Level FlightAware ADS-B
Mon 07:09:57 PM 42.0950 -81.7250 204° Southwest 387 445 36,000  Level FlightAware ADS-B
Mon 07:10:37 PM 42.0290 -81.7640 204° Southwest 387 445 36,000  Level FlightAware ADS-B
Mon 07:11:30 PM 41.9480 -81.8130 204° Southwest 386 444 36,000  Level FlightAware ADS-B
Mon 07:12:01 PM 41.8950 -81.8450 204° Southwest 384 442 36,000  Level FlightAware ADS-B
Mon 07:12:38 PM 41.8350 -81.8820 205° Southwest 382 440 36,000  Level FlightAware ADS-B
Mon 07:13:16 PM 41.7710 -81.9220 205° Southwest 382 440 36,000  Level FlightAware ADS-B
Mon 07:13:48 PM 41.7200 -81.9530 204° Southwest 382 440 36,000  Level FlightAware ADS-B
Mon 07:14:24 PM 41.6620 -81.9890 205° Southwest 383 441 36,000  Level FlightAware ADS-B
Mon 07:14:58 PM 41.6090 -82.0210 204° Southwest 382 440 36,000  Level FlightAware ADS-B
Mon 07:15:29 PM 41.5620 -82.0500 205° Southwest 382 440 36,000  Level FlightAware ADS-B
Mon 07:16:11 PM 41.4910 -82.0930 204° Southwest 384 442 36,000  Level FlightAware ADS-B
Mon 07:16:43 PM 41.4380 -82.1250 204° Southwest 384 442 36,000  Level FlightAware ADS-B
Mon 07:17:18 PM 41.3800 -82.1600 204° Southwest 384 442 36,000  Level FlightAware ADS-B
Mon 07:17:55 PM 41.3220 -82.1950 204° Southwest 382 440 36,000  Level FlightAware ADS-B
Mon 07:18:27 PM 41.2710 -82.2260 205° Southwest 382 440 36,000  Level FlightAware ADS-B
Mon 07:19:04 PM 41.2100 -82.2640 205° Southwest 381 438 36,000  Level FlightAware ADS-B
Mon 07:19:38 PM 41.1560 -82.2970 205° Southwest 379 436 36,000  Level FlightAware ADS-B
Mon 07:20:10 PM 41.1060 -82.3270 204° Southwest 378 435 36,000  Level FlightAware ADS-B
Mon 07:20:48 PM 41.0440 -82.3650 205° Southwest 378 435 36,000  Level FlightAware ADS-B
Mon 07:21:25 PM 40.9890 -82.3990 205° Southwest 378 435 36,000  Level FlightAware ADS-B
Mon 07:22:00 PM 40.9300 -82.4340 204° Southwest 380 437 36,000  Level FlightAware ADS-B
Mon 07:22:20 PM 40.8950 -82.4470 196° South 398 458 36,000  Level FlightAware ADS-B
Mon 07:22:55 PM 40.8350 -82.4580 188° South 401 461 36,000  Level FlightAware ADS-B
Mon 07:23:30 PM 40.7700 -82.4700 188° South 400 460 36,000  Level FlightAware ADS-B
Mon 07:24:06 PM 40.7040 -82.4830 188° South 400 460 36,000  Level FlightAware ADS-B
Mon 07:24:39 PM 40.6430 -82.4940 188° South 402 463 36,000  Level FlightAware ADS-B
Mon 07:25:16 PM 40.5730 -82.5080 189° South 402 463 36,000  Level FlightAware ADS-B
Mon 07:25:52 PM 40.5060 -82.5210 188° South 400 460 36,000  Level FlightAware ADS-B
Mon 07:26:23 PM 40.4500 -82.5310 188° South 398 458 36,000  Level FlightAware ADS-B
Mon 07:26:59 PM 40.3850 -82.5440 189° South 396 456 36,000  Level FlightAware ADS-B
Mon 07:27:35 PM 40.3190 -82.5560 188° South 396 456 36,000  Level FlightAware ADS-B
Mon 07:28:11 PM 40.2560 -82.5680 188° South 397 457 36,000  Level FlightAware ADS-B
Mon 07:28:43 PM 40.1960 -82.5800 189° South 399 459 36,000  Level FlightAware ADS-B
Mon 07:29:19 PM 40.1290 -82.5900 187° South 405 466 36,000  Level FlightAware ADS-B
Mon 07:29:56 PM 40.0600 -82.5950 183° South 406 467 36,000  Level FlightAware ADS-B
Mon 07:30:29 PM 40.0020 -82.5990 183° South 405 466 36,000  Level FlightAware ADS-B
Mon 07:31:05 PM 39.9310 -82.6030 182° South 404 465 36,000  Level FlightAware ADS-B
Mon 07:31:41 PM 39.8640 -82.6080 183° South 404 465 36,000  Level FlightAware ADS-B
Mon 07:32:13 PM 39.8040 -82.6120 183° South 403 464 36,000  Level FlightAware ADS-B
Mon 07:32:49 PM 39.7360 -82.6170 183° South 404 465 36,000  Level FlightAware ADS-B
Mon 07:33:25 PM 39.6690 -82.6210 183° South 405 466 36,000  Level FlightAware ADS-B
Mon 07:34:01 PM 39.6010 -82.6260 183° South 402 463 36,000  Level FlightAware ADS-B
Mon 07:34:35 PM 39.5410 -82.6300 183° South 401 461 36,000  Level FlightAware ADS-B
Mon 07:35:11 PM 39.4720 -82.6340 183° South 401 461 36,000  Level FlightAware ADS-B
Mon 07:35:43 PM 39.4130 -82.6380 183° South 402 463 36,000  Level FlightAware ADS-B
Mon 07:36:20 PM 39.3490 -82.6430 183° South 401 461 36,000  Level FlightAware ADS-B
Mon 07:36:56 PM 39.2790 -82.6470 183° South 400 460 36,000  Level FlightAware ADS-B
Mon 07:37:29 PM 39.2170 -82.6510 183° South 400 460 36,000  Level FlightAware ADS-B
Mon 07:38:05 PM 39.1520 -82.6560 183° South 399 459 36,000  Level FlightAware ADS-B
Mon 07:38:38 PM 39.0910 -82.6600 183° South 398 458 36,000  Level FlightAware ADS-B
Mon 07:39:15 PM 39.0210 -82.6640 183° South 399 459 36,000  Level FlightAware ADS-B
Mon 07:39:47 PM 38.9620 -82.6680 183° South 400 460 36,000  Level FlightAware ADS-B
Mon 07:40:22 PM 38.9000 -82.6720 183° South 402 463 36,000  Level FlightAware ADS-B
Mon 07:40:57 PM 38.8350 -82.6770 183° South 402 463 36,000  Level FlightAware ADS-B
Mon 07:41:36 PM 38.7610 -82.6820 183° South 402 463 36,000  Level FlightAware ADS-B
Mon 07:42:07 PM 38.7030 -82.6850 182° South 403 464 36,000  Level FlightAware ADS-B
Mon 07:43:00 PM 38.6030 -82.6920 183° South 402 463 36,000  Level FlightAware ADS-B
Mon 07:43:36 PM 38.5360 -82.6960 183° South 400 460 36,000  Level FlightAware ADS-B
Mon 07:44:07 PM 38.4780 -82.7000 183° South 400 460 36,000  Level FlightAware ADS-B
Mon 07:44:44 PM 38.4140 -82.7040 183° South 399 459 36,000  Level FlightAware ADS-B
Mon 07:45:21 PM 38.3440 -82.7090 183° South 396 456 36,000  Level FlightAware ADS-B
Mon 07:45:53 PM 38.2840 -82.7120 182° South 396 456 36,000  Level FlightAware ADS-B
Mon 07:46:29 PM 38.2210 -82.7160 183° South 394 453 36,000  Level FlightAware ADS-B
Mon 07:47:05 PM 38.1530 -82.7210 183° South 394 453 36,000  Level FlightAware ADS-B
Mon 07:47:34 PM 38.0995 -82.7245 183° South 396 456 36,000  Level FlightAware ADS-B
Mon 07:48:07 PM 38.0393 -82.7283 183° South 398 458 36,000  Level FlightAware ADS-B
Mon 07:48:41 PM 37.9769 -82.7323 183° South 400 460 36,000  Level FlightAware ADS-B
Mon 07:49:11 PM 37.9205 -82.7359 183° South 401 461 36,000  Level FlightAware ADS-B
Mon 07:49:56 PM 37.8397 -82.7411 183° South 401 461 36,000  Level FlightAware ADS-B
Mon 07:50:28 PM 37.7776 -82.7453 183° South 399 459 36,000  Level FlightAware ADS-B
Mon 07:51:00 PM 37.7228 -82.7535 187° South 390 449 36,000  Level FlightAware ADS-B
Mon 07:51:38 PM 37.6552 -82.7740 194° South 376 433 36,000  Level FlightAware ADS-B
Mon 07:51:54 PM 37.6286 -82.7862 200° South 370 426 36,000  Level FlightAware ADS-B
Mon 07:52:09 PM 37.6057 -82.7989 204° Southwest 366 421 36,000  Level FlightAware ADS-B
Mon 07:52:49 PM 37.5471 -82.8377 208° Southwest 363 418 36,000  Level FlightAware ADS-B
Mon 07:53:27 PM 37.4899 -82.8755 208° Southwest 364 419 36,000  Level FlightAware ADS-B
Mon 07:53:57 PM 37.4448 -82.9051 208° Southwest 364 419 36,000  Level FlightAware ADS-B
Mon 07:54:28 PM 37.4008 -82.9340 208° Southwest 363 418 36,000  Level FlightAware ADS-B
Mon 07:55:00 PM 37.3511 -82.9666 208° Southwest 362 417 36,000  Level FlightAware ADS-B
Mon 07:55:31 PM 37.3057 -82.9964 208° Southwest 360 414 36,000  Level FlightAware ADS-B
Mon 07:56:02 PM 37.2605 -83.0259 207° Southwest 358 412 36,000  Level FlightAware ADS-B
Mon 07:56:32 PM 37.2167 -83.0546 208° Southwest 359 413 36,000  Level FlightAware ADS-B
Mon 07:57:02 PM 37.1714 -83.0841 207° Southwest 359 413 36,000  Level FlightAware ADS-B
Mon 07:57:33 PM 37.1261 -83.1135 207° Southwest 356 410 36,000  Level FlightAware ADS-B
Mon 07:58:04 PM 37.0808 -83.1429 207° Southwest 354 407 36,000  Level FlightAware ADS-B
Mon 07:58:36 PM 37.0342 -83.1732 207° Southwest 354 407 36,000  Level FlightAware ADS-B
Mon 07:59:07 PM 36.9892 -83.2024 207° Southwest 355 409 36,000  Level FlightAware ADS-B
Mon 07:59:38 PM 36.9447 -83.2314 208° Southwest 356 410 36,000  Level FlightAware ADS-B
Mon 08:00:08 PM 36.9001 -83.2602 207° Southwest 356 410 36,000  Level FlightAware ADS-B
Mon 08:00:40 PM 36.8536 -83.2903 207° Southwest 356 410 36,000  Level FlightAware ADS-B
Mon 08:01:10 PM 36.8094 -83.3189 207° Southwest 356 410 36,000  Level FlightAware ADS-B
Mon 08:01:41 PM 36.7650 -83.3475 207° Southwest 354 407 36,000  Level FlightAware ADS-B
Mon 08:02:13 PM 36.7188 -83.3772 207° Southwest 352 405 36,000  Level FlightAware ADS-B
Mon 08:02:44 PM 36.6732 -83.4066 207° Southwest 356 410 36,000  Level FlightAware ADS-B
Mon 08:03:16 PM 36.6257 -83.4371 207° Southwest 357 411 36,000  Level FlightAware ADS-B
Mon 08:03:47 PM 36.5812 -83.4656 207° Southwest 358 412 36,000  Level FlightAware ADS-B
Mon 08:04:17 PM 36.5359 -83.4945 207° Southwest 358 412 36,000  Level FlightAware ADS-B
Mon 08:04:48 PM 36.4916 -83.5229 207° Southwest 359 413 36,000  Level FlightAware ADS-B
Mon 08:05:18 PM 36.4466 -83.5516 207° Southwest 359 413 36,000  Level FlightAware ADS-B
Mon 08:05:48 PM 36.4034 -83.5792 207° Southwest 359 413 36,000  Level FlightAware ADS-B
Mon 08:06:19 PM 36.3560 -83.6093 207° Southwest 359 413 36,000  Level FlightAware ADS-B
Mon 08:06:50 PM 36.3109 -83.6381 207° Southwest 360 414 36,000  Level FlightAware ADS-B
Mon 08:07:22 PM 36.2642 -83.6677 207° Southwest 359 413 36,000  Level FlightAware ADS-B
Mon 08:07:57 PM 36.2124 -83.7005 207° Southwest 353 406 36,000  Level FlightAware ADS-B
Mon 08:08:28 PM 36.1673 -83.7292 207° Southwest 353 406 36,000  Level FlightAware ADS-B
Mon 08:09:04 PM 36.1153 -83.7620 207° Southwest 352 405 36,000  Level FlightAware ADS-B
Mon 08:09:43 PM 36.0590 -83.7976 207° Southwest 352 405 36,000  Level FlightAware ADS-B
Mon 08:10:13 PM 36.0148 -83.8256 207° Southwest 352 405 36,000  Level FlightAware ADS-B
Mon 08:10:47 PM 35.9660 -83.8562 207° Southwest 352 405 36,000  Level FlightAware ADS-B
Mon 08:11:06 PM 35.9387 -83.8732 207° Southwest 353 406 36,000  Level FlightAware ADS-B
Mon 08:11:31 PM 35.8999 -83.8918 201° Southwest 362 417 36,000  Level FlightAware ADS-B
Mon 08:11:43 PM 35.8796 -83.8992 196° South 366 421 36,000  Level FlightAware ADS-B
Mon 08:11:55 PM 35.8600 -83.9050 193° South 371 427 36,000  Level FlightAware ADS-B
Mon 08:12:26 PM 35.8084 -83.9175 191° South 371 427 36,000  Level FlightAware ADS-B
Mon 08:12:58 PM 35.7545 -83.9311 192° South 372 428 36,000  Level FlightAware ADS-B
Mon 08:13:29 PM 35.7017 -83.9442 191° South 372 428 36,000  Level FlightAware ADS-B
Mon 08:13:59 PM 35.6506 -83.9566 191° South 373 429 36,000  Level FlightAware ADS-B
Mon 08:14:36 PM 35.5894 -83.9714 191° South 373 429 36,000  Level FlightAware ADS-B
Mon 08:15:08 PM 35.5348 -83.9845 191° South 372 428 36,000  Level FlightAware ADS-B
Mon 08:16:01 PM 35.4453 -84.0062 191° South 372 428 36,000  Level FlightAware ADS-B
Mon 08:16:32 PM 35.3922 -84.0190 191° South 373 429 36,000  Level FlightAware ADS-B
Mon 08:17:03 PM 35.3391 -84.0319 191° South 378 435 36,000  Level FlightAware ADS-B
Mon 08:17:33 PM 35.2866 -84.0445 191° South 378 435 36,000  Level FlightAware ADS-B
Mon 08:18:05 PM 35.2328 -84.0574 191° South 377 434 36,000  Level FlightAware ADS-B
Mon 08:18:38 PM 35.1766 -84.0710 191° South 377 434 36,000  Level FlightAware ADS-B
Mon 08:19:23 PM 35.0995 -84.0894 191° South 377 434 36,000  Level FlightAware ADS-B
Mon 08:19:54 PM 35.0462 -84.1022 191° South 377 434 36,000  Level FlightAware ADS-B
Mon 08:20:25 PM 34.9930 -84.1149 191° South 379 436 36,000  Level FlightAware ADS-B
Mon 08:21:24 PM 34.8930 -84.1390 191° South 382 440 36,000  Level FlightAware ADS-B
Mon 08:21:31 PM 34.8788 -84.1422 190° South 379 436 36,000  Level FlightAware ADS-B
Mon 08:22:03 PM 34.8233 -84.1554 191° South 389 448 36,000  Level FlightAware ADS-B
Mon 08:22:33 PM 34.7688 -84.1685 191° South 399 459 36,000  Level FlightAware ADS-B
Mon 08:23:03 PM 34.7139 -84.1814 191° South 399 459 36,000  Level FlightAware ADS-B
Mon 08:23:43 PM 34.6460 -84.1970 191° South 393 452 36,000  Level FlightAware ADS-B
Mon 08:23:51 PM 34.6283 -84.2015 192° South 391 450 36,000  Level FlightAware ADS-B
Mon 08:24:21 PM 34.5764 -84.2137 191° South 388 447 36,000  Level FlightAware ADS-B
Mon 08:24:51 PM 34.5216 -84.2266 191° South 388 447 36,000  Level FlightAware ADS-B
Mon 08:25:22 PM 34.4679 -84.2394 191° South 388 447 36,000  Level FlightAware ADS-B
Mon 08:25:52 PM 34.4148 -84.2519 191° South 389 448 36,000  Level FlightAware ADS-B
Mon 08:26:24 PM 34.3589 -84.2650 191° South 389 448 36,000  Level FlightAware ADS-B
Mon 08:27:18 PM 34.2680 -84.2860 191° South 390 449 36,000  Level FlightAware ADS-B
Mon 08:29:00 PM 34.1111 -84.3178 189° South  Level FlightAware Approximate
Mon 08:30:00 PM 34.0189 -84.3368 191° South  Level FlightAware Approximate
Mon 08:31:00 PM 33.9271 -84.3589 191° South  Level FlightAware Approximate
Mon 08:31:52 PM 33.7727 -84.4018 191° South 397 457 36,000  Level FlightAware ADS-B
Mon 08:32:22 PM 33.7187 -84.4144 191° South 399 459 36,000  Level FlightAware ADS-B
Mon 08:32:52 PM 33.6627 -84.4272 191° South 403 464 36,000  Level FlightAware ADS-B
Mon 08:33:11 PM 33.6273 -84.4322 187° South 412 474 36,000  Level FlightAware ADS-B
Mon 08:33:24 PM 33.6036 -84.4338 183° South 418 481 36,000  Level FlightAware ADS-B
Mon 08:33:33 PM 33.5858 -84.4341 181° South 422 486 36,000  Level FlightAware ADS-B
Mon 08:34:24 PM 33.4844 -84.4319 179° South 424 488 36,000  Level FlightAware ADS-B
Mon 08:35:15 PM 33.3860 -84.4300 179° South 417 480 36,000  Level FlightAware ADS-B
Mon 08:35:39 PM 33.3376 -84.4291 179° South 424 488 36,000  Level FlightAware ADS-B
Mon 08:36:27 PM 33.2440 -84.4270 179° South 426 490 36,000  Level FlightAware ADS-B
Mon 08:37:01 PM 33.1810 -84.4260 179° South 426 490 36,000  Level FlightAware ADS-B
Mon 08:37:37 PM 33.1070 -84.4240 179° South 427 491 36,000  Level FlightAware ADS-B
Mon 08:38:09 PM 33.0480 -84.4230 179° South 427 491 36,000  Level FlightAware ADS-B
Mon 08:38:42 PM 32.9810 -84.4220 179° South 427 491 36,000  Level FlightAware ADS-B
Mon 08:39:22 PM 32.8970 -84.4200 179° South 428 493 36,000  Level FlightAware ADS-B
Mon 08:39:53 PM 32.8460 -84.4190 179° South 428 493 36,000  Level FlightAware ADS-B
Mon 08:40:29 PM 32.7720 -84.4180 179° South 428 493 36,000  Level FlightAware ADS-B
Mon 08:41:05 PM 32.7050 -84.4160 179° South 429 494 36,000  Level FlightAware ADS-B
Mon 08:41:41 PM 32.6330 -84.4150 179° South 429 494 36,000  Level FlightAware ADS-B
Mon 08:42:20 PM 32.5640 -84.4130 179° South 428 493 36,000  Level FlightAware ADS-B
Mon 08:42:56 PM 32.5030 -84.4120 179° South 428 493 36,000  Level FlightAware ADS-B
Mon 08:43:32 PM 32.4430 -84.4110 179° South 428 493 36,000  Level FlightAware ADS-B
Mon 08:44:08 PM 32.3820 -84.4100 179° South 428 493 36,000  Level FlightAware ADS-B
Mon 08:44:45 PM 32.3200 -84.4080 178° South 428 493 36,000  Level FlightAware ADS-B
Mon 08:45:21 PM 32.2590 -84.4070 179° South 428 493 36,000  Level FlightAware ADS-B
Mon 08:45:57 PM 32.1990 -84.4060 179° South 428 493 36,000  Level FlightAware ADS-B
Mon 08:46:33 PM 32.1380 -84.4050 179° South 428 493 36,000  Level FlightAware ADS-B
Mon 08:47:09 PM 32.0780 -84.4030 178° South 428 493 36,000  Level FlightAware ADS-B
Mon 08:49:00 PM 31.9050 -84.3953 178° South  Level FlightAware Approximate
Mon 08:50:00 PM 31.8115 -84.3912 178° South  Level FlightAware Approximate
Mon 08:50:38 PM 31.5550 -84.3930 178° South 428 493 36,000  Level FlightAware ADS-B
Mon 08:50:57 PM 31.5211 -84.3927 180° South 427 491 36,000  Level FlightAware ADS-B (KONZ)
Mon 08:51:57 PM 31.4010 -84.3900 179° South 427 491 36,000  Level FlightAware ADS-B
Mon 08:52:33 PM 31.3290 -84.3890 179° South 428 493 36,000 171 Level FlightAware ADS-B
Mon 08:53:07 PM 31.2620 -84.3880 179° South 428 493 36,200 400 Climbing FlightAware ADS-B
Mon 08:53:33 PM 31.2093 -84.3866 179° South 429 494 36,400 514 Climbing FlightAware ADS-B (KONZ)
Mon 08:54:17 PM 31.1280 -84.3850 179° South 427 491 36,800 577 Climbing FlightAware ADS-B
Mon 08:54:25 PM 31.1059 -84.3846 179° South 427 491 36,900 167 Climbing FlightAware ADS-B (KONZ)
Mon 08:55:29 PM 30.9840 -84.3820 179° South 424 488 37,000 75 Climbing FlightAware ADS-B
Mon 08:55:45 PM 30.9523 -84.3816 179° South 426 490 37,000  Level FlightAware ADS-B (KONZ)
Mon 08:56:32 PM 30.8670 -84.3800 179° South 424 488 37,000  Level FlightAware ADS-B
Mon 08:57:13 PM 30.7770 -84.3780 179° South 425 489 37,000  Level FlightAware ADS-B
Mon 08:57:26 PM 30.7517 -84.3777 180° South 425 489 37,000  Level FlightAware ADS-B (KONZ)
Mon 08:58:30 PM 30.6250 -84.3690 177° South 435 501 37,000  Level FlightAware ADS-B
Mon 08:58:33 PM 30.6180 -84.3672 167° South 437 503 37,000  Level FlightAware ADS-B (KONZ)
Mon 08:59:03 PM 30.5580 -84.3520 168° South 444 511 37,000  Level FlightAware ADS-B
Mon 08:59:38 PM 30.4890 -84.3240 161° South 454 522 37,000  Level FlightAware ADS-B
Mon 09:00:14 PM 30.4210 -84.2850 154° Southeast 464 534 37,000  Level FlightAware ADS-B
Mon 09:00:45 PM 30.3640 -84.2480 151° Southeast 463 533 37,000  Level FlightAware ADS-B
Mon 09:01:23 PM 30.2910 -84.2000 150° Southeast 461 531 37,000  Level FlightAware ADS-B
Mon 09:02:01 PM 30.2230 -84.1550 150° Southeast 461 531 37,000  Level FlightAware ADS-B
Mon 09:02:33 PM 30.1620 -84.1160 151° Southeast 463 533 37,000  Level FlightAware ADS-B
Mon 09:03:07 PM 30.0990 -84.0750 151° Southeast 463 533 37,000  Level FlightAware ADS-B
Mon 09:03:45 PM 30.0300 -84.0300 151° Southeast 463 533 37,000  Level FlightAware ADS-B
Mon 09:04:16 PM 29.9690 -83.9904 151° Southeast 464 534 37,000  Level FlightAware ADS-B (KONZ)
Mon 09:04:52 PM 29.9040 -83.9480 151° Southeast 463 533 37,000  Level FlightAware ADS-B
Mon 09:05:26 PM 29.8380 -83.9060 151° Southeast 463 533 37,000  Level FlightAware ADS-B
Mon 09:06:40 PM 29.7010 -83.8170 151° Southeast 464 534 37,000  Level FlightAware ADS-B
Mon 09:07:12 PM 29.6390 -83.7770 151° Southeast 465 535 37,000  Level FlightAware ADS-B
Mon 09:07:49 PM 29.5700 -83.7330 151° Southeast 467 537 37,000  Level FlightAware ADS-B
Mon 09:08:24 PM 29.5090 -83.6930 150° Southeast 467 537 37,000  Level FlightAware ADS-B
Mon 09:09:01 PM 29.4350 -83.6460 151° Southeast 466 536 37,000  Level FlightAware ADS-B
Mon 09:09:31 PM 29.3820 -83.6120 151° Southeast 466 536 37,000  Level FlightAware ADS-B
Mon 09:10:10 PM 29.3050 -83.5630 151° Southeast 466 536 37,000  Level FlightAware ADS-B
Mon 09:10:45 PM 29.2390 -83.5210 151° Southeast 466 536 37,000  Level FlightAware ADS-B
Mon 09:11:03 PM 29.2050 -83.4990 151° Southeast 466 536 37,000  Level FlightAware ADS-B
Mon 09:12:00 PM 29.1010 -83.4330 151° Southeast 467 537 37,000  Level FlightAware ADS-B
Mon 09:12:37 PM 29.0330 -83.3900 151° Southeast 468 539 37,000  Level FlightAware ADS-B
Mon 09:13:09 PM 28.9690 -83.3490 151° Southeast 469 540 37,000  Level FlightAware ADS-B
Mon 09:13:44 PM 28.9020 -83.3060 151° Southeast 469 540 37,000  Level FlightAware ADS-B
Mon 09:14:24 PM 28.8280 -83.2600 151° Southeast 469 540 37,000  Level FlightAware ADS-B
Mon 09:14:53 PM 28.7710 -83.2240 151° Southeast 469 540 37,000  Level FlightAware ADS-B
Mon 09:15:29 PM 28.7030 -83.1810 151° Southeast 470 541 37,000  Level FlightAware ADS-B
Mon 09:15:55 PM 28.6504 -83.1480 151° Southeast 469 540 37,000  Level FlightAware ADS-B
Mon 09:16:40 PM 28.5726 -83.0991 151° Southeast 469 540 37,000  Level FlightAware ADS-B
Mon 09:17:16 PM 28.4970 -83.0520 151° Southeast 467 537 37,000  Level FlightAware ADS-B
Mon 09:17:51 PM 28.4310 -83.0100 151° Southeast 467 537 37,000  Level FlightAware ADS-B
Mon 09:18:06 PM 28.4173 -83.0015 152° Southeast 469 540 37,000  Level FlightAware ADS-B
Mon 09:19:00 PM 28.3000 -82.9280 151° Southeast 468 539 37,000  Level FlightAware ADS-B
Mon 09:19:12 PM 28.2765 -82.9136 152° Southeast 469 540 37,000  Level FlightAware ADS-B
Mon 09:19:46 PM 28.2138 -82.8744 151° Southeast 470 541 37,000  Level FlightAware ADS-B
Mon 09:20:44 PM 28.1010 -82.8040 151° Southeast 471 542 37,000  Level FlightAware ADS-B
Mon 09:21:16 PM 28.0389 -82.7656 151° Southeast 472 543 37,000  Level FlightAware ADS-B
Mon 09:21:47 PM 27.9859 -82.7327 151° Southeast 472 543 37,000  Level FlightAware ADS-B
Mon 09:24:00 PM 27.7648 -82.5925 149° Southeast  Level FlightAware Approximate
Mon 09:25:00 PM 27.6659 -82.5263 149° Southeast  Level FlightAware Approximate
Mon 09:26:00 PM 27.5670 -82.4602 149° Southeast  Level FlightAware Approximate
Mon 09:27:00 PM 27.4681 -82.3942 149° Southeast  Level FlightAware Approximate
Mon 09:28:00 PM 27.3691 -82.3283 149° Southeast  Level FlightAware Approximate
Mon 09:29:00 PM 27.2701 -82.2626 149° Southeast  Level FlightAware Approximate
Mon 09:30:00 PM 27.1710 -82.1970 149° Southeast  Level FlightAware Approximate
Mon 09:31:00 PM 27.0720 -82.1314 150° Southeast  Level FlightAware Approximate
Mon 09:32:00 PM 26.9729 -82.0660 150° Southeast  Level FlightAware Approximate
Mon 09:33:00 PM 26.8737 -82.0007 150° Southeast  Level FlightAware Approximate
Mon 09:34:00 PM 26.7746 -81.9356 150° Southeast  Level FlightAware Approximate
Mon 09:35:00 PM 26.6754 -81.8705 150° Southeast  Level FlightAware Approximate
Mon 09:36:00 PM 26.5762 -81.8056 150° Southeast  Level FlightAware Approximate
Mon 09:37:00 PM 26.4732 -81.7498 161° South  Level FlightAware Approximate
Mon 09:38:00 PM 26.3646 -81.7076 161° South  Level FlightAware Approximate
Mon 09:39:00 PM 26.2561 -81.6655 161° South  Level FlightAware Approximate
Mon 09:40:00 PM 26.1474 -81.6235 161° South  Level FlightAware Approximate
Mon 09:41:00 PM 26.0388 -81.5816 161° South  Level FlightAware Approximate
Mon 09:42:00 PM 25.9302 -81.5398 161° South  Level FlightAware Approximate
Mon 09:43:00 PM 25.8216 -81.4980 161° South  Level FlightAware Approximate
Mon 09:43:08 PM 25.3200 -82.5631 161° South 457 526 37,000  Level Miami Center
Mon 09:44:00 PM 25.7127 -81.4570 161° South  Level FlightAware Approximate
Mon 09:45:00 PM 25.6038 -81.4164 161° South  Level FlightAware Approximate
Mon 09:46:00 PM 25.4948 -81.3759 161° South  Level FlightAware Approximate
Mon 09:47:00 PM 25.3858 -81.3354 161° South  Level FlightAware Approximate
Mon 09:48:00 PM 25.2768 -81.2951 161° South  Level FlightAware Approximate
Mon 09:48:36 PM 24.6730 -82.7560 161° South 456 525 32,100  Level FlightAware ADS-B
Mon 09:49:19 PM 24.6100 -82.8120 219° Southwest 457 526 31,400 -525 Descending FlightAware ADS-B
Mon 09:49:56 PM 24.5590 -82.8580 219° Southwest 457 526 31,400  Level FlightAware ADS-B
Mon 09:50:34 PM 24.5060 -82.9050 219° Southwest 457 526 31,400  Level FlightAware ADS-B
Mon 09:51:10 PM 24.4550 -82.9500 219° Southwest 457 526 31,400  Level FlightAware ADS-B
Mon 09:51:56 PM 24.3910 -83.0070 219° Southwest 457 526 31,400  Level FlightAware ADS-B
Mon 09:52:33 PM 24.3390 -83.0530 219° Southwest 457 526 31,400  Level FlightAware ADS-B
Mon 09:53:10 PM 24.2880 -83.0990 219° Southwest 457 526 31,400  Level FlightAware ADS-B
Mon 09:53:46 PM 24.2370 -83.1430 218° Southwest 457 526 31,400  Level FlightAware ADS-B
Mon 09:54:22 PM 24.1870 -83.1880 219° Southwest 457 526 31,400  Level FlightAware ADS-B
Mon 09:54:58 PM 24.1370 -83.2330 219° Southwest 457 526 31,400  Level FlightAware ADS-B
Mon 09:55:34 PM 24.0870 -83.2770 219° Southwest 457 526 31,400  Level FlightAware ADS-B
Mon 09:56:10 PM 24.0360 -83.3220 219° Southwest 457 526 31,400  Level FlightAware ADS-B
Mon 09:56:46 PM 23.9860 -83.3660 219° Southwest 457 526 31,400  Level FlightAware ADS-B
Mon 09:57:22 PM 23.9360 -83.4110 219° Southwest 457 526 31,400  Level FlightAware ADS-B
Mon 09:57:58 PM 23.8850 -83.4560 219° Southwest 457 526 31,400  Level FlightAware ADS-B
Mon 10:00:00 PM 23.7261 -83.2686 133° Southeast  Level Estimated
Mon 10:01:00 PM 23.6479 -83.1767 133° Southeast  Level Estimated
Mon 10:02:00 PM 23.5696 -83.0848 133° Southeast  Level Estimated
Mon 10:03:00 PM 23.4912 -82.9931 133° Southeast  Level Estimated
Mon 10:04:00 PM 23.4128 -82.9014 133° Southeast  Level Estimated
Mon 10:05:00 PM 23.3344 -82.8099 133° Southeast  Level Estimated
Mon 10:06:00 PM 23.2559 -82.7185 133° Southeast  Level Estimated
Mon 10:07:00 PM 23.1773 -82.6271 133° Southeast  Level Estimated
Mon 10:08:00 PM 23.0987 -82.5359 133° Southeast  Level Estimated
Mon 10:09:00 PM 23.0201 -82.4448 133° Southeast  Level Estimated
Mon 10:10:00 PM 22.9891 -82.4091 133° Southeast  Level Estimated
Mon 10:11:00 PM 22.9891 -82.4091 51° Northeast  Level Estimated
Mon 10:12:00 PM 22.9891 -82.4091 51° Northeast  Level Estimated
Mon 10:13:00 PM 22.9891 -82.4091 51° Northeast  Level Estimated
Mon 10:14:00 PM 22.9891 -82.4091 51° Northeast  Level Estimated
Mon 10:15:00 PM 22.9891 -82.4091 51° Northeast  Level Estimated
Mon 10:16:00 PM 22.9891 -82.4091 51° Northeast  Level Estimated
Mon 10:17:00 PM 22.9891 -82.4091 51° Northeast  Level Estimated
Mon 10:18:00 PM 22.9891 -82.4091 51° Northeast  Level Estimated
Mon 10:19:00 PM 22.9891 -82.4091 51° Northeast  Level Estimated
Mon 10:20:00 PM 22.9891 -82.4091 51° Northeast  Level Estimated
Mon 10:21:00 PM 22.9891 -82.4091 51° Northeast  Level Estimated
Mon 10:22:00 PM 22.9891 -82.4091 51° Northeast  Level Estimated
Mon 10:23:00 PM 22.9891 -82.4091 51° Northeast  Level Estimated
Mon 10:24:00 PM 22.9891 -82.4091 51° Northeast  Level Estimated
Mon 10:25:00 PM 22.9891 -82.4091 51° Northeast  Level Estimated
Mon 10:26:00 PM 22.9891 -82.4091 51° Northeast  Level Estimated
Mon 10:27:00 PM 22.9891 -82.4091 51° Northeast  Level Estimated
Mon 10:28:00 PM 22.9891 -82.4091 51° Northeast  Level Estimated
Mon 10:29:00 PM 22.9891 -82.4091 51° Northeast  Level Estimated
Mon 10:30:00 PM 22.9891 -82.4091 51° Northeast  Level Estimated
Mon 10:31:00 PM 22.9891 -82.4091 51° Northeast  Level Estimated
Mon 10:32:00 PM 22.9891 -82.4091 51° Northeast  Level Estimated

Login

Don't have an account? Register now (free) for customized features, flight alerts, and more!